<?xml version="1.0" encoding="UTF-8" standalone="no" ?>
<gpx xmlns="http://www.topografix.com/GPX/1/1" xmlns:xsi="http://www.w3.org/2001/XMLSchema-instance" xsi:schemaLocation="http://www.topografix.com/GPX/1/1 http://www.topografix.com/GPX/1/1/gpx.xsd" version="1.1" creator="VisuGPX - https://www.visugpx.com">
  <metadata>
    <name>la source de l\'ain</name>
    <desc><![CDATA[A proximité de la petite cité comtoise de Nozeroy, le site de la source de l\'Ain demeure un lieu privilégié de promenade et de ressourcement au coeur d\'une nature bien présente. A la fraîcheur des cours de l\'Ain et de son affluent, la Serpentine, profitez des sentiers partant des parkings mis à votre disposition afin de découvrir le saut des Maillys (45 minutes aller-retour à partir de la Source de l\'Ain), la Source de l\'Ain ou encore les vestiges du moulin du Saut. Vous aurez la possibilité de visiter ces deux dernières curiosités en empruntant le sentier d\'interprétation qui les relie. A 700 mètres d\'altitude, la rivière de l\'Ain naît d\'une source qui devra parcourir 190 kilomètres et franchir de nombreuses gorges et cascades avant de se jeter dans le Rhône, à 20 kilomètres de Lyon. Cette source aux deux visages peut en période de sécheresse ouvrir ses mystèrieuses entrailles aux spéléologues confirmés ou encore débiter 60 mètres cubes d\'eau par seconde en période de forte pluie. Ces deux aspects contrastés la rendent incontournable lors d\'un passage au pays de Nozeroy.]]></desc>
  </metadata>
  <trk>
    <name><![CDATA[SOURCE DE L AIN]]></name>
    <trkseg>
      <trkpt lat="46.76178" lon="6.02428">
        <ele>720.65</ele>
        <time>2013-08-14T08:20:42Z</time>
      </trkpt>
      <trkpt lat="46.76178" lon="6.02428">
        <ele>720.65</ele>
        <time>2013-08-14T08:21:00Z</time>
      </trkpt>
      <trkpt lat="46.76178" lon="6.02429">
        <ele>720.65</ele>
        <time>2013-08-14T08:21:19Z</time>
      </trkpt>
      <trkpt lat="46.76179" lon="6.02428">
        <ele>720.65</ele>
        <time>2013-08-14T08:21:22Z</time>
      </trkpt>
      <trkpt lat="46.76179" lon="6.02424">
        <ele>721.13</ele>
        <time>2013-08-14T08:21:25Z</time>
      </trkpt>
      <trkpt lat="46.76189" lon="6.02415">
        <ele>720.16</ele>
        <time>2013-08-14T08:21:39Z</time>
      </trkpt>
      <trkpt lat="46.76194" lon="6.02411">
        <ele>719.68</ele>
        <time>2013-08-14T08:21:53Z</time>
      </trkpt>
      <trkpt lat="46.76196" lon="6.02409">
        <ele>720.16</ele>
        <time>2013-08-14T08:22:16Z</time>
      </trkpt>
      <trkpt lat="46.76198" lon="6.02406">
        <ele>719.2</ele>
        <time>2013-08-14T08:22:27Z</time>
      </trkpt>
      <trkpt lat="46.76203" lon="6.02406">
        <ele>716.8</ele>
        <time>2013-08-14T08:22:39Z</time>
      </trkpt>
      <trkpt lat="46.76213" lon="6.02409">
        <ele>715.36</ele>
        <time>2013-08-14T08:22:50Z</time>
      </trkpt>
      <trkpt lat="46.76225" lon="6.02414">
        <ele>717.28</ele>
        <time>2013-08-14T08:23:07Z</time>
      </trkpt>
      <trkpt lat="46.76229" lon="6.02407">
        <ele>719.2</ele>
        <time>2013-08-14T08:23:18Z</time>
      </trkpt>
      <trkpt lat="46.76232" lon="6.02403">
        <ele>719.68</ele>
        <time>2013-08-14T08:23:23Z</time>
      </trkpt>
      <trkpt lat="46.76237" lon="6.02396">
        <ele>721.13</ele>
        <time>2013-08-14T08:23:30Z</time>
      </trkpt>
      <trkpt lat="46.7625" lon="6.02386">
        <ele>721.61</ele>
        <time>2013-08-14T08:23:44Z</time>
      </trkpt>
      <trkpt lat="46.76268" lon="6.02366">
        <ele>722.09</ele>
        <time>2013-08-14T08:24:05Z</time>
      </trkpt>
      <trkpt lat="46.76283" lon="6.02347">
        <ele>723.05</ele>
        <time>2013-08-14T08:24:22Z</time>
      </trkpt>
      <trkpt lat="46.76297" lon="6.02328">
        <ele>723.53</ele>
        <time>2013-08-14T08:24:41Z</time>
      </trkpt>
      <trkpt lat="46.76308" lon="6.02313">
        <ele>727.86</ele>
        <time>2013-08-14T08:25:03Z</time>
      </trkpt>
      <trkpt lat="46.76321" lon="6.02309">
        <ele>730.26</ele>
        <time>2013-08-14T08:25:19Z</time>
      </trkpt>
      <trkpt lat="46.76333" lon="6.02302">
        <ele>731.22</ele>
        <time>2013-08-14T08:25:36Z</time>
      </trkpt>
      <trkpt lat="46.76344" lon="6.02295">
        <ele>732.18</ele>
        <time>2013-08-14T08:25:56Z</time>
      </trkpt>
      <trkpt lat="46.76345" lon="6.02294">
        <ele>732.18</ele>
        <time>2013-08-14T08:26:19Z</time>
      </trkpt>
      <trkpt lat="46.76349" lon="6.02291">
        <ele>732.66</ele>
        <time>2013-08-14T08:26:38Z</time>
      </trkpt>
      <trkpt lat="46.76353" lon="6.02287">
        <ele>732.66</ele>
        <time>2013-08-14T08:26:56Z</time>
      </trkpt>
      <trkpt lat="46.76357" lon="6.02283">
        <ele>733.62</ele>
        <time>2013-08-14T08:27:11Z</time>
      </trkpt>
      <trkpt lat="46.76366" lon="6.02277">
        <ele>736.99</ele>
        <time>2013-08-14T08:27:23Z</time>
      </trkpt>
      <trkpt lat="46.76372" lon="6.0227">
        <ele>737.47</ele>
        <time>2013-08-14T08:27:35Z</time>
      </trkpt>
      <trkpt lat="46.76379" lon="6.02263">
        <ele>739.87</ele>
        <time>2013-08-14T08:27:49Z</time>
      </trkpt>
      <trkpt lat="46.76391" lon="6.0225">
        <ele>743.72</ele>
        <time>2013-08-14T08:28:07Z</time>
      </trkpt>
      <trkpt lat="46.76407" lon="6.02231">
        <ele>743.24</ele>
        <time>2013-08-14T08:28:27Z</time>
      </trkpt>
      <trkpt lat="46.76422" lon="6.02214">
        <ele>744.68</ele>
        <time>2013-08-14T08:28:44Z</time>
      </trkpt>
      <trkpt lat="46.76432" lon="6.02198">
        <ele>742.28</ele>
        <time>2013-08-14T08:29:02Z</time>
      </trkpt>
      <trkpt lat="46.7644" lon="6.02189">
        <ele>743.72</ele>
        <time>2013-08-14T08:29:19Z</time>
      </trkpt>
      <trkpt lat="46.76451" lon="6.02175">
        <ele>747.08</ele>
        <time>2013-08-14T08:29:38Z</time>
      </trkpt>
      <trkpt lat="46.76464" lon="6.02163">
        <ele>759.1</ele>
        <time>2013-08-14T08:29:52Z</time>
      </trkpt>
      <trkpt lat="46.76461" lon="6.02157">
        <ele>765.35</ele>
        <time>2013-08-14T08:30:05Z</time>
      </trkpt>
      <trkpt lat="46.76448" lon="6.0216">
        <ele>765.35</ele>
        <time>2013-08-14T08:30:19Z</time>
      </trkpt>
      <trkpt lat="46.76437" lon="6.02158">
        <ele>769.67</ele>
        <time>2013-08-14T08:30:33Z</time>
      </trkpt>
      <trkpt lat="46.76425" lon="6.02154">
        <ele>772.08</ele>
        <time>2013-08-14T08:30:50Z</time>
      </trkpt>
      <trkpt lat="46.76422" lon="6.02143">
        <ele>773.52</ele>
        <time>2013-08-14T08:31:03Z</time>
      </trkpt>
      <trkpt lat="46.76422" lon="6.02125">
        <ele>776.4</ele>
        <time>2013-08-14T08:31:18Z</time>
      </trkpt>
      <trkpt lat="46.76425" lon="6.02107">
        <ele>779.77</ele>
        <time>2013-08-14T08:31:33Z</time>
      </trkpt>
      <trkpt lat="46.76428" lon="6.02096">
        <ele>779.77</ele>
        <time>2013-08-14T08:31:44Z</time>
      </trkpt>
      <trkpt lat="46.76428" lon="6.02095">
        <ele>779.77</ele>
        <time>2013-08-14T08:31:45Z</time>
      </trkpt>
      <trkpt lat="46.76435" lon="6.0208">
        <ele>780.25</ele>
        <time>2013-08-14T08:31:59Z</time>
      </trkpt>
      <trkpt lat="46.76441" lon="6.02064">
        <ele>781.69</ele>
        <time>2013-08-14T08:32:12Z</time>
      </trkpt>
      <trkpt lat="46.76449" lon="6.02046">
        <ele>784.57</ele>
        <time>2013-08-14T08:32:26Z</time>
      </trkpt>
      <trkpt lat="46.76453" lon="6.02031">
        <ele>784.09</ele>
        <time>2013-08-14T08:32:40Z</time>
      </trkpt>
      <trkpt lat="46.76457" lon="6.02017">
        <ele>785.53</ele>
        <time>2013-08-14T08:32:55Z</time>
      </trkpt>
      <trkpt lat="46.76463" lon="6.02">
        <ele>785.53</ele>
        <time>2013-08-14T08:33:10Z</time>
      </trkpt>
      <trkpt lat="46.76464" lon="6.01986">
        <ele>789.38</ele>
        <time>2013-08-14T08:33:24Z</time>
      </trkpt>
      <trkpt lat="46.76469" lon="6.01972">
        <ele>791.78</ele>
        <time>2013-08-14T08:33:38Z</time>
      </trkpt>
      <trkpt lat="46.76477" lon="6.01956">
        <ele>790.34</ele>
        <time>2013-08-14T08:33:51Z</time>
      </trkpt>
      <trkpt lat="46.76481" lon="6.01942">
        <ele>790.82</ele>
        <time>2013-08-14T08:34:05Z</time>
      </trkpt>
      <trkpt lat="46.76489" lon="6.01927">
        <ele>791.3</ele>
        <time>2013-08-14T08:34:17Z</time>
      </trkpt>
      <trkpt lat="46.76495" lon="6.01917">
        <ele>791.78</ele>
        <time>2013-08-14T08:34:29Z</time>
      </trkpt>
      <trkpt lat="46.7651" lon="6.019">
        <ele>791.3</ele>
        <time>2013-08-14T08:34:46Z</time>
      </trkpt>
      <trkpt lat="46.76512" lon="6.01901">
        <ele>791.3</ele>
        <time>2013-08-14T08:34:56Z</time>
      </trkpt>
      <trkpt lat="46.76513" lon="6.01901">
        <ele>791.78</ele>
        <time>2013-08-14T08:35:10Z</time>
      </trkpt>
      <trkpt lat="46.76513" lon="6.019">
        <ele>792.26</ele>
        <time>2013-08-14T08:35:24Z</time>
      </trkpt>
      <trkpt lat="46.76515" lon="6.01892">
        <ele>792.26</ele>
        <time>2013-08-14T08:35:36Z</time>
      </trkpt>
      <trkpt lat="46.76515" lon="6.01892">
        <ele>792.74</ele>
        <time>2013-08-14T08:35:50Z</time>
      </trkpt>
      <trkpt lat="46.76518" lon="6.01892">
        <ele>793.22</ele>
        <time>2013-08-14T08:36:00Z</time>
      </trkpt>
      <trkpt lat="46.76529" lon="6.01872">
        <ele>791.78</ele>
        <time>2013-08-14T08:36:17Z</time>
      </trkpt>
      <trkpt lat="46.76542" lon="6.01845">
        <ele>788.42</ele>
        <time>2013-08-14T08:36:36Z</time>
      </trkpt>
      <trkpt lat="46.76556" lon="6.01824">
        <ele>787.94</ele>
        <time>2013-08-14T08:36:54Z</time>
      </trkpt>
      <trkpt lat="46.76559" lon="6.0182">
        <ele>787.94</ele>
        <time>2013-08-14T08:36:57Z</time>
      </trkpt>
      <trkpt lat="46.76563" lon="6.01813">
        <ele>787.46</ele>
        <time>2013-08-14T08:37:02Z</time>
      </trkpt>
      <trkpt lat="46.76565" lon="6.0181">
        <ele>787.46</ele>
        <time>2013-08-14T08:37:04Z</time>
      </trkpt>
      <trkpt lat="46.7657" lon="6.01802">
        <ele>786.98</ele>
        <time>2013-08-14T08:37:10Z</time>
      </trkpt>
      <trkpt lat="46.76586" lon="6.01774">
        <ele>786.02</ele>
        <time>2013-08-14T08:37:27Z</time>
      </trkpt>
      <trkpt lat="46.76591" lon="6.01768">
        <ele>785.53</ele>
        <time>2013-08-14T08:37:32Z</time>
      </trkpt>
      <trkpt lat="46.76603" lon="6.01748">
        <ele>785.05</ele>
        <time>2013-08-14T08:37:48Z</time>
      </trkpt>
      <trkpt lat="46.76616" lon="6.01726">
        <ele>780.73</ele>
        <time>2013-08-14T08:38:07Z</time>
      </trkpt>
      <trkpt lat="46.76619" lon="6.01715">
        <ele>778.32</ele>
        <time>2013-08-14T08:38:19Z</time>
      </trkpt>
      <trkpt lat="46.7662" lon="6.01712">
        <ele>778.32</ele>
        <time>2013-08-14T08:38:36Z</time>
      </trkpt>
      <trkpt lat="46.76635" lon="6.01701">
        <ele>777.84</ele>
        <time>2013-08-14T08:38:51Z</time>
      </trkpt>
      <trkpt lat="46.76648" lon="6.01687">
        <ele>778.32</ele>
        <time>2013-08-14T08:39:04Z</time>
      </trkpt>
      <trkpt lat="46.76664" lon="6.01662">
        <ele>780.73</ele>
        <time>2013-08-14T08:39:20Z</time>
      </trkpt>
      <trkpt lat="46.76676" lon="6.0164">
        <ele>781.69</ele>
        <time>2013-08-14T08:39:36Z</time>
      </trkpt>
      <trkpt lat="46.76695" lon="6.01616">
        <ele>781.69</ele>
        <time>2013-08-14T08:39:54Z</time>
      </trkpt>
      <trkpt lat="46.76707" lon="6.01588">
        <ele>779.77</ele>
        <time>2013-08-14T08:40:11Z</time>
      </trkpt>
      <trkpt lat="46.76718" lon="6.01556">
        <ele>782.17</ele>
        <time>2013-08-14T08:40:28Z</time>
      </trkpt>
      <trkpt lat="46.76732" lon="6.01524">
        <ele>782.65</ele>
        <time>2013-08-14T08:40:45Z</time>
      </trkpt>
      <trkpt lat="46.76736" lon="6.01516">
        <ele>783.13</ele>
        <time>2013-08-14T08:40:50Z</time>
      </trkpt>
      <trkpt lat="46.76738" lon="6.01483">
        <ele>789.86</ele>
        <time>2013-08-14T08:41:09Z</time>
      </trkpt>
      <trkpt lat="46.76737" lon="6.01473">
        <ele>790.34</ele>
        <time>2013-08-14T08:41:15Z</time>
      </trkpt>
      <trkpt lat="46.7673" lon="6.01458">
        <ele>792.74</ele>
        <time>2013-08-14T08:41:25Z</time>
      </trkpt>
      <trkpt lat="46.76731" lon="6.01425">
        <ele>795.63</ele>
        <time>2013-08-14T08:41:43Z</time>
      </trkpt>
      <trkpt lat="46.76747" lon="6.01389">
        <ele>793.22</ele>
        <time>2013-08-14T08:42:05Z</time>
      </trkpt>
      <trkpt lat="46.7675" lon="6.01375">
        <ele>792.26</ele>
        <time>2013-08-14T08:42:15Z</time>
      </trkpt>
      <trkpt lat="46.76754" lon="6.01368">
        <ele>792.26</ele>
        <time>2013-08-14T08:42:19Z</time>
      </trkpt>
      <trkpt lat="46.76768" lon="6.01335">
        <ele>791.3</ele>
        <time>2013-08-14T08:42:40Z</time>
      </trkpt>
      <trkpt lat="46.76778" lon="6.01311">
        <ele>789.38</ele>
        <time>2013-08-14T08:42:57Z</time>
      </trkpt>
      <trkpt lat="46.7678" lon="6.01306">
        <ele>789.38</ele>
        <time>2013-08-14T08:43:00Z</time>
      </trkpt>
      <trkpt lat="46.76781" lon="6.01298">
        <ele>789.38</ele>
        <time>2013-08-14T08:43:03Z</time>
      </trkpt>
      <trkpt lat="46.76783" lon="6.01296">
        <ele>789.86</ele>
        <time>2013-08-14T08:43:05Z</time>
      </trkpt>
      <trkpt lat="46.76788" lon="6.01279">
        <ele>791.3</ele>
        <time>2013-08-14T08:43:17Z</time>
      </trkpt>
      <trkpt lat="46.76791" lon="6.01272">
        <ele>791.78</ele>
        <time>2013-08-14T08:43:28Z</time>
      </trkpt>
      <trkpt lat="46.76793" lon="6.01266">
        <ele>791.78</ele>
        <time>2013-08-14T08:43:39Z</time>
      </trkpt>
      <trkpt lat="46.76795" lon="6.01247">
        <ele>791.78</ele>
        <time>2013-08-14T08:43:53Z</time>
      </trkpt>
      <trkpt lat="46.76801" lon="6.01213">
        <ele>790.82</ele>
        <time>2013-08-14T08:44:10Z</time>
      </trkpt>
      <trkpt lat="46.76799" lon="6.01186">
        <ele>787.94</ele>
        <time>2013-08-14T08:44:25Z</time>
      </trkpt>
      <trkpt lat="46.76792" lon="6.01154">
        <ele>786.5</ele>
        <time>2013-08-14T08:44:42Z</time>
      </trkpt>
      <trkpt lat="46.76781" lon="6.01114">
        <ele>786.02</ele>
        <time>2013-08-14T08:45:03Z</time>
      </trkpt>
      <trkpt lat="46.76781" lon="6.01112">
        <ele>786.02</ele>
        <time>2013-08-14T08:45:04Z</time>
      </trkpt>
      <trkpt lat="46.76779" lon="6.01109">
        <ele>786.98</ele>
        <time>2013-08-14T08:45:19Z</time>
      </trkpt>
      <trkpt lat="46.76777" lon="6.01103">
        <ele>786.02</ele>
        <time>2013-08-14T08:45:42Z</time>
      </trkpt>
      <trkpt lat="46.76774" lon="6.0109">
        <ele>785.53</ele>
        <time>2013-08-14T08:45:57Z</time>
      </trkpt>
      <trkpt lat="46.76771" lon="6.01084">
        <ele>784.57</ele>
        <time>2013-08-14T08:46:11Z</time>
      </trkpt>
      <trkpt lat="46.76753" lon="6.0105">
        <ele>784.57</ele>
        <time>2013-08-14T08:46:28Z</time>
      </trkpt>
      <trkpt lat="46.76739" lon="6.01026">
        <ele>781.21</ele>
        <time>2013-08-14T08:46:49Z</time>
      </trkpt>
      <trkpt lat="46.76724" lon="6.01011">
        <ele>780.73</ele>
        <time>2013-08-14T08:47:06Z</time>
      </trkpt>
      <trkpt lat="46.76705" lon="6.00998">
        <ele>778.32</ele>
        <time>2013-08-14T08:47:25Z</time>
      </trkpt>
      <trkpt lat="46.76702" lon="6.00994">
        <ele>778.32</ele>
        <time>2013-08-14T08:47:39Z</time>
      </trkpt>
      <trkpt lat="46.76686" lon="6.00981">
        <ele>772.56</ele>
        <time>2013-08-14T08:47:54Z</time>
      </trkpt>
      <trkpt lat="46.76664" lon="6.00962">
        <ele>766.31</ele>
        <time>2013-08-14T08:48:14Z</time>
      </trkpt>
      <trkpt lat="46.76661" lon="6.00957">
        <ele>765.83</ele>
        <time>2013-08-14T08:48:17Z</time>
      </trkpt>
      <trkpt lat="46.76654" lon="6.00945">
        <ele>765.35</ele>
        <time>2013-08-14T08:48:22Z</time>
      </trkpt>
      <trkpt lat="46.7663" lon="6.00923">
        <ele>770.63</ele>
        <time>2013-08-14T08:48:40Z</time>
      </trkpt>
      <trkpt lat="46.76618" lon="6.00906">
        <ele>771.6</ele>
        <time>2013-08-14T08:48:54Z</time>
      </trkpt>
      <trkpt lat="46.76613" lon="6.00884">
        <ele>770.63</ele>
        <time>2013-08-14T08:49:07Z</time>
      </trkpt>
      <trkpt lat="46.76609" lon="6.00857">
        <ele>769.67</ele>
        <time>2013-08-14T08:49:21Z</time>
      </trkpt>
      <trkpt lat="46.76608" lon="6.00845">
        <ele>770.15</ele>
        <time>2013-08-14T08:49:28Z</time>
      </trkpt>
      <trkpt lat="46.76607" lon="6.00811">
        <ele>774.48</ele>
        <time>2013-08-14T08:49:45Z</time>
      </trkpt>
      <trkpt lat="46.76605" lon="6.00786">
        <ele>775.92</ele>
        <time>2013-08-14T08:50:02Z</time>
      </trkpt>
      <trkpt lat="46.76593" lon="6.00744">
        <ele>775.44</ele>
        <time>2013-08-14T08:50:25Z</time>
      </trkpt>
      <trkpt lat="46.76586" lon="6.00727">
        <ele>774</ele>
        <time>2013-08-14T08:50:39Z</time>
      </trkpt>
      <trkpt lat="46.76574" lon="6.00719">
        <ele>770.63</ele>
        <time>2013-08-14T08:50:54Z</time>
      </trkpt>
      <trkpt lat="46.76567" lon="6.00719">
        <ele>769.67</ele>
        <time>2013-08-14T08:50:58Z</time>
      </trkpt>
      <trkpt lat="46.76535" lon="6.00711">
        <ele>765.83</ele>
        <time>2013-08-14T08:51:20Z</time>
      </trkpt>
      <trkpt lat="46.7652" lon="6.00694">
        <ele>763.42</ele>
        <time>2013-08-14T08:51:34Z</time>
      </trkpt>
      <trkpt lat="46.76504" lon="6.00688">
        <ele>757.66</ele>
        <time>2013-08-14T08:51:50Z</time>
      </trkpt>
      <trkpt lat="46.76478" lon="6.0068">
        <ele>754.77</ele>
        <time>2013-08-14T08:52:10Z</time>
      </trkpt>
      <trkpt lat="46.76465" lon="6.00668">
        <ele>755.25</ele>
        <time>2013-08-14T08:52:24Z</time>
      </trkpt>
      <trkpt lat="46.7646" lon="6.00659">
        <ele>758.62</ele>
        <time>2013-08-14T08:52:36Z</time>
      </trkpt>
      <trkpt lat="46.76457" lon="6.00657">
        <ele>759.58</ele>
        <time>2013-08-14T08:52:57Z</time>
      </trkpt>
      <trkpt lat="46.76443" lon="6.00649">
        <ele>760.54</ele>
        <time>2013-08-14T08:53:16Z</time>
      </trkpt>
      <trkpt lat="46.76441" lon="6.00647">
        <ele>760.06</ele>
        <time>2013-08-14T08:53:29Z</time>
      </trkpt>
      <trkpt lat="46.76418" lon="6.00633">
        <ele>754.29</ele>
        <time>2013-08-14T08:53:51Z</time>
      </trkpt>
      <trkpt lat="46.76415" lon="6.00631">
        <ele>753.33</ele>
        <time>2013-08-14T08:53:54Z</time>
      </trkpt>
      <trkpt lat="46.76388" lon="6.00637">
        <ele>745.64</ele>
        <time>2013-08-14T08:54:16Z</time>
      </trkpt>
      <trkpt lat="46.76365" lon="6.00633">
        <ele>738.43</ele>
        <time>2013-08-14T08:54:37Z</time>
      </trkpt>
      <trkpt lat="46.76363" lon="6.00633">
        <ele>737.95</ele>
        <time>2013-08-14T08:54:40Z</time>
      </trkpt>
      <trkpt lat="46.76346" lon="6.00614">
        <ele>741.79</ele>
        <time>2013-08-14T08:55:01Z</time>
      </trkpt>
      <trkpt lat="46.76345" lon="6.00615">
        <ele>744.68</ele>
        <time>2013-08-14T08:55:30Z</time>
      </trkpt>
      <trkpt lat="46.76336" lon="6.00612">
        <ele>745.64</ele>
        <time>2013-08-14T08:55:43Z</time>
      </trkpt>
      <trkpt lat="46.76317" lon="6.00605">
        <ele>745.64</ele>
        <time>2013-08-14T08:56:00Z</time>
      </trkpt>
      <trkpt lat="46.7629" lon="6.00598">
        <ele>743.24</ele>
        <time>2013-08-14T08:56:22Z</time>
      </trkpt>
      <trkpt lat="46.76276" lon="6.00594">
        <ele>745.16</ele>
        <time>2013-08-14T08:56:35Z</time>
      </trkpt>
      <trkpt lat="46.76246" lon="6.00595">
        <ele>744.68</ele>
        <time>2013-08-14T08:56:59Z</time>
      </trkpt>
      <trkpt lat="46.76226" lon="6.00588">
        <ele>744.68</ele>
        <time>2013-08-14T08:57:15Z</time>
      </trkpt>
      <trkpt lat="46.76215" lon="6.0058">
        <ele>740.35</ele>
        <time>2013-08-14T08:57:31Z</time>
      </trkpt>
      <trkpt lat="46.76214" lon="6.00581">
        <ele>740.83</ele>
        <time>2013-08-14T08:57:46Z</time>
      </trkpt>
      <trkpt lat="46.76211" lon="6.00577">
        <ele>741.31</ele>
        <time>2013-08-14T08:57:59Z</time>
      </trkpt>
      <trkpt lat="46.76197" lon="6.00554">
        <ele>739.39</ele>
        <time>2013-08-14T08:58:14Z</time>
      </trkpt>
      <trkpt lat="46.7619" lon="6.00539">
        <ele>735.55</ele>
        <time>2013-08-14T08:58:30Z</time>
      </trkpt>
      <trkpt lat="46.76186" lon="6.0052">
        <ele>734.58</ele>
        <time>2013-08-14T08:58:52Z</time>
      </trkpt>
      <trkpt lat="46.7618" lon="6.00507">
        <ele>736.03</ele>
        <time>2013-08-14T08:59:21Z</time>
      </trkpt>
      <trkpt lat="46.76174" lon="6.00488">
        <ele>737.47</ele>
        <time>2013-08-14T08:59:29Z</time>
      </trkpt>
      <trkpt lat="46.76167" lon="6.00463">
        <ele>736.03</ele>
        <time>2013-08-14T08:59:46Z</time>
      </trkpt>
      <trkpt lat="46.76167" lon="6.00457">
        <ele>736.51</ele>
        <time>2013-08-14T09:00:07Z</time>
      </trkpt>
      <trkpt lat="46.76162" lon="6.00432">
        <ele>736.51</ele>
        <time>2013-08-14T09:00:28Z</time>
      </trkpt>
      <trkpt lat="46.76162" lon="6.00431">
        <ele>736.03</ele>
        <time>2013-08-14T09:00:48Z</time>
      </trkpt>
      <trkpt lat="46.76162" lon="6.00431">
        <ele>736.03</ele>
        <time>2013-08-14T09:01:19Z</time>
      </trkpt>
      <trkpt lat="46.76162" lon="6.00405">
        <ele>736.51</ele>
        <time>2013-08-14T09:01:35Z</time>
      </trkpt>
      <trkpt lat="46.76165" lon="6.00371">
        <ele>733.14</ele>
        <time>2013-08-14T09:01:55Z</time>
      </trkpt>
      <trkpt lat="46.76166" lon="6.00341">
        <ele>732.18</ele>
        <time>2013-08-14T09:02:13Z</time>
      </trkpt>
      <trkpt lat="46.76166" lon="6.0033">
        <ele>731.7</ele>
        <time>2013-08-14T09:02:19Z</time>
      </trkpt>
      <trkpt lat="46.76165" lon="6.00305">
        <ele>729.3</ele>
        <time>2013-08-14T09:02:35Z</time>
      </trkpt>
      <trkpt lat="46.76163" lon="6.00283">
        <ele>725.45</ele>
        <time>2013-08-14T09:02:49Z</time>
      </trkpt>
      <trkpt lat="46.76161" lon="6.00274">
        <ele>722.09</ele>
        <time>2013-08-14T09:03:06Z</time>
      </trkpt>
      <trkpt lat="46.7616" lon="6.00267">
        <ele>721.13</ele>
        <time>2013-08-14T09:03:18Z</time>
      </trkpt>
      <trkpt lat="46.76158" lon="6.00266">
        <ele>721.13</ele>
        <time>2013-08-14T09:03:34Z</time>
      </trkpt>
      <trkpt lat="46.76157" lon="6.00263">
        <ele>722.57</ele>
        <time>2013-08-14T09:03:51Z</time>
      </trkpt>
      <trkpt lat="46.76155" lon="6.00263">
        <ele>725.45</ele>
        <time>2013-08-14T09:07:13Z</time>
      </trkpt>
      <trkpt lat="46.76154" lon="6.00263">
        <ele>725.93</ele>
        <time>2013-08-14T09:07:38Z</time>
      </trkpt>
      <trkpt lat="46.76151" lon="6.00264">
        <ele>726.41</ele>
        <time>2013-08-14T09:07:42Z</time>
      </trkpt>
      <trkpt lat="46.76129" lon="6.00263">
        <ele>727.86</ele>
        <time>2013-08-14T09:08:00Z</time>
      </trkpt>
      <trkpt lat="46.76119" lon="6.00261">
        <ele>729.3</ele>
        <time>2013-08-14T09:08:08Z</time>
      </trkpt>
      <trkpt lat="46.76102" lon="6.00249">
        <ele>727.86</ele>
        <time>2013-08-14T09:08:28Z</time>
      </trkpt>
      <trkpt lat="46.76102" lon="6.00249">
        <ele>728.34</ele>
        <time>2013-08-14T09:08:51Z</time>
      </trkpt>
      <trkpt lat="46.76094" lon="6.00242">
        <ele>728.82</ele>
        <time>2013-08-14T09:09:04Z</time>
      </trkpt>
      <trkpt lat="46.7608" lon="6.00225">
        <ele>729.3</ele>
        <time>2013-08-14T09:09:20Z</time>
      </trkpt>
      <trkpt lat="46.76079" lon="6.00219">
        <ele>729.78</ele>
        <time>2013-08-14T09:09:25Z</time>
      </trkpt>
      <trkpt lat="46.76078" lon="6.00196">
        <ele>729.3</ele>
        <time>2013-08-14T09:09:42Z</time>
      </trkpt>
      <trkpt lat="46.76083" lon="6.00184">
        <ele>728.82</ele>
        <time>2013-08-14T09:09:51Z</time>
      </trkpt>
      <trkpt lat="46.76085" lon="6.00175">
        <ele>727.86</ele>
        <time>2013-08-14T09:09:57Z</time>
      </trkpt>
      <trkpt lat="46.76089" lon="6.0017">
        <ele>728.34</ele>
        <time>2013-08-14T09:10:02Z</time>
      </trkpt>
      <trkpt lat="46.761" lon="6.00162">
        <ele>726.41</ele>
        <time>2013-08-14T09:10:17Z</time>
      </trkpt>
      <trkpt lat="46.76105" lon="6.00155">
        <ele>725.93</ele>
        <time>2013-08-14T09:10:23Z</time>
      </trkpt>
      <trkpt lat="46.76117" lon="6.00144">
        <ele>725.45</ele>
        <time>2013-08-14T09:10:38Z</time>
      </trkpt>
      <trkpt lat="46.76123" lon="6.00148">
        <ele>725.45</ele>
        <time>2013-08-14T09:10:44Z</time>
      </trkpt>
      <trkpt lat="46.76137" lon="6.00166">
        <ele>721.13</ele>
        <time>2013-08-14T09:11:00Z</time>
      </trkpt>
      <trkpt lat="46.76145" lon="6.00164">
        <ele>722.09</ele>
        <time>2013-08-14T09:11:12Z</time>
      </trkpt>
      <trkpt lat="46.7614" lon="6.00157">
        <ele>723.05</ele>
        <time>2013-08-14T09:11:21Z</time>
      </trkpt>
      <trkpt lat="46.76135" lon="6.00145">
        <ele>724.01</ele>
        <time>2013-08-14T09:11:29Z</time>
      </trkpt>
      <trkpt lat="46.76122" lon="6.00125">
        <ele>723.53</ele>
        <time>2013-08-14T09:11:45Z</time>
      </trkpt>
      <trkpt lat="46.76098" lon="6.00116">
        <ele>722.57</ele>
        <time>2013-08-14T09:12:03Z</time>
      </trkpt>
      <trkpt lat="46.76082" lon="6.0012">
        <ele>719.68</ele>
        <time>2013-08-14T09:12:17Z</time>
      </trkpt>
      <trkpt lat="46.7606" lon="6.00128">
        <ele>714.88</ele>
        <time>2013-08-14T09:12:35Z</time>
      </trkpt>
      <trkpt lat="46.76039" lon="6.00131">
        <ele>709.59</ele>
        <time>2013-08-14T09:12:53Z</time>
      </trkpt>
      <trkpt lat="46.76037" lon="6.0013">
        <ele>709.11</ele>
        <time>2013-08-14T09:12:55Z</time>
      </trkpt>
      <trkpt lat="46.76011" lon="6.00122">
        <ele>711.03</ele>
        <time>2013-08-14T09:13:12Z</time>
      </trkpt>
      <trkpt lat="46.75987" lon="6.00114">
        <ele>712.95</ele>
        <time>2013-08-14T09:13:28Z</time>
      </trkpt>
      <trkpt lat="46.75966" lon="6.001">
        <ele>711.99</ele>
        <time>2013-08-14T09:13:45Z</time>
      </trkpt>
      <trkpt lat="46.75943" lon="6.00092">
        <ele>708.15</ele>
        <time>2013-08-14T09:14:04Z</time>
      </trkpt>
      <trkpt lat="46.75923" lon="6.00087">
        <ele>703.34</ele>
        <time>2013-08-14T09:14:21Z</time>
      </trkpt>
      <trkpt lat="46.75923" lon="6.00076">
        <ele>701.42</ele>
        <time>2013-08-14T09:14:29Z</time>
      </trkpt>
      <trkpt lat="46.75936" lon="6.00065">
        <ele>699.98</ele>
        <time>2013-08-14T09:14:44Z</time>
      </trkpt>
      <trkpt lat="46.75936" lon="6.00065">
        <ele>699.98</ele>
        <time>2013-08-14T09:14:45Z</time>
      </trkpt>
      <trkpt lat="46.75944" lon="6.00059">
        <ele>700.46</ele>
        <time>2013-08-14T09:15:02Z</time>
      </trkpt>
      <trkpt lat="46.75963" lon="6.00055">
        <ele>699.02</ele>
        <time>2013-08-14T09:15:18Z</time>
      </trkpt>
      <trkpt lat="46.7597" lon="6.00056">
        <ele>699.98</ele>
        <time>2013-08-14T09:15:32Z</time>
      </trkpt>
      <trkpt lat="46.75972" lon="6.00057">
        <ele>699.98</ele>
        <time>2013-08-14T09:15:49Z</time>
      </trkpt>
      <trkpt lat="46.75975" lon="6.00056">
        <ele>700.94</ele>
        <time>2013-08-14T09:15:59Z</time>
      </trkpt>
      <trkpt lat="46.75991" lon="6.00053">
        <ele>700.94</ele>
        <time>2013-08-14T09:16:13Z</time>
      </trkpt>
      <trkpt lat="46.75997" lon="6.00052">
        <ele>700.94</ele>
        <time>2013-08-14T09:16:18Z</time>
      </trkpt>
      <trkpt lat="46.76009" lon="6.00046">
        <ele>698.53</ele>
        <time>2013-08-14T09:16:28Z</time>
      </trkpt>
      <trkpt lat="46.76015" lon="6.00042">
        <ele>696.61</ele>
        <time>2013-08-14T09:16:34Z</time>
      </trkpt>
      <trkpt lat="46.76034" lon="6.00023">
        <ele>690.36</ele>
        <time>2013-08-14T09:16:53Z</time>
      </trkpt>
      <trkpt lat="46.76042" lon="5.99992">
        <ele>689.88</ele>
        <time>2013-08-14T09:17:11Z</time>
      </trkpt>
      <trkpt lat="46.76033" lon="5.99971">
        <ele>685.56</ele>
        <time>2013-08-14T09:17:27Z</time>
      </trkpt>
      <trkpt lat="46.76017" lon="5.99957">
        <ele>685.08</ele>
        <time>2013-08-14T09:17:42Z</time>
      </trkpt>
      <trkpt lat="46.7601" lon="5.99934">
        <ele>682.67</ele>
        <time>2013-08-14T09:17:57Z</time>
      </trkpt>
      <trkpt lat="46.76011" lon="5.99926">
        <ele>682.19</ele>
        <time>2013-08-14T09:18:12Z</time>
      </trkpt>
      <trkpt lat="46.76011" lon="5.99925">
        <ele>682.19</ele>
        <time>2013-08-14T09:18:23Z</time>
      </trkpt>
      <trkpt lat="46.76012" lon="5.99915">
        <ele>677.87</ele>
        <time>2013-08-14T09:36:37Z</time>
      </trkpt>
      <trkpt lat="46.7602" lon="5.99919">
        <ele>679.31</ele>
        <time>2013-08-14T09:36:52Z</time>
      </trkpt>
      <trkpt lat="46.76026" lon="5.99913">
        <ele>679.31</ele>
        <time>2013-08-14T09:36:59Z</time>
      </trkpt>
      <trkpt lat="46.76032" lon="5.99908">
        <ele>678.83</ele>
        <time>2013-08-14T09:37:14Z</time>
      </trkpt>
      <trkpt lat="46.76036" lon="5.99905">
        <ele>679.79</ele>
        <time>2013-08-14T09:37:30Z</time>
      </trkpt>
      <trkpt lat="46.76042" lon="5.99902">
        <ele>679.31</ele>
        <time>2013-08-14T09:37:36Z</time>
      </trkpt>
      <trkpt lat="46.76063" lon="5.999">
        <ele>676.91</ele>
        <time>2013-08-14T09:37:53Z</time>
      </trkpt>
      <trkpt lat="46.7607" lon="5.99897">
        <ele>676.91</ele>
        <time>2013-08-14T09:38:07Z</time>
      </trkpt>
      <trkpt lat="46.76082" lon="5.9989">
        <ele>675.94</ele>
        <time>2013-08-14T09:38:20Z</time>
      </trkpt>
      <trkpt lat="46.76102" lon="5.99876">
        <ele>674.98</ele>
        <time>2013-08-14T09:38:37Z</time>
      </trkpt>
      <trkpt lat="46.76107" lon="5.99874">
        <ele>676.42</ele>
        <time>2013-08-14T09:38:57Z</time>
      </trkpt>
      <trkpt lat="46.76106" lon="5.99873">
        <ele>675.94</ele>
        <time>2013-08-14T09:39:03Z</time>
      </trkpt>
      <trkpt lat="46.76107" lon="5.99877">
        <ele>675.94</ele>
        <time>2013-08-14T09:39:24Z</time>
      </trkpt>
      <trkpt lat="46.76107" lon="5.99873">
        <ele>675.46</ele>
        <time>2013-08-14T09:39:49Z</time>
      </trkpt>
      <trkpt lat="46.76119" lon="5.99874">
        <ele>676.42</ele>
        <time>2013-08-14T09:39:59Z</time>
      </trkpt>
      <trkpt lat="46.76143" lon="5.99873">
        <ele>676.42</ele>
        <time>2013-08-14T09:40:19Z</time>
      </trkpt>
      <trkpt lat="46.76146" lon="5.99862">
        <ele>678.35</ele>
        <time>2013-08-14T09:40:40Z</time>
      </trkpt>
      <trkpt lat="46.76138" lon="5.99856">
        <ele>677.39</ele>
        <time>2013-08-14T09:40:55Z</time>
      </trkpt>
      <trkpt lat="46.76128" lon="5.99854">
        <ele>672.58</ele>
        <time>2013-08-14T09:41:12Z</time>
      </trkpt>
      <trkpt lat="46.76124" lon="5.99854">
        <ele>671.62</ele>
        <time>2013-08-14T09:41:16Z</time>
      </trkpt>
      <trkpt lat="46.76118" lon="5.99843">
        <ele>671.14</ele>
        <time>2013-08-14T09:41:31Z</time>
      </trkpt>
      <trkpt lat="46.76116" lon="5.99838">
        <ele>670.66</ele>
        <time>2013-08-14T09:41:49Z</time>
      </trkpt>
      <trkpt lat="46.7612" lon="5.99834">
        <ele>669.7</ele>
        <time>2013-08-14T09:42:08Z</time>
      </trkpt>
      <trkpt lat="46.76123" lon="5.99828">
        <ele>670.18</ele>
        <time>2013-08-14T09:42:28Z</time>
      </trkpt>
      <trkpt lat="46.76124" lon="5.99834">
        <ele>669.7</ele>
        <time>2013-08-14T09:42:54Z</time>
      </trkpt>
      <trkpt lat="46.76123" lon="5.9984">
        <ele>668.73</ele>
        <time>2013-08-14T09:43:20Z</time>
      </trkpt>
      <trkpt lat="46.76127" lon="5.99855">
        <ele>667.77</ele>
        <time>2013-08-14T09:43:41Z</time>
      </trkpt>
      <trkpt lat="46.76127" lon="5.99859">
        <ele>671.14</ele>
        <time>2013-08-14T09:43:57Z</time>
      </trkpt>
      <trkpt lat="46.76119" lon="5.99859">
        <ele>671.14</ele>
        <time>2013-08-14T09:44:00Z</time>
      </trkpt>
      <trkpt lat="46.76099" lon="5.99856">
        <ele>673.54</ele>
        <time>2013-08-14T09:44:15Z</time>
      </trkpt>
      <trkpt lat="46.76083" lon="5.99856">
        <ele>674.5</ele>
        <time>2013-08-14T09:44:28Z</time>
      </trkpt>
      <trkpt lat="46.7607" lon="5.99855">
        <ele>675.94</ele>
        <time>2013-08-14T09:44:40Z</time>
      </trkpt>
      <trkpt lat="46.7607" lon="5.99853">
        <ele>671.14</ele>
        <time>2013-08-14T09:44:58Z</time>
      </trkpt>
      <trkpt lat="46.76062" lon="5.99853">
        <ele>673.06</ele>
        <time>2013-08-14T09:45:12Z</time>
      </trkpt>
      <trkpt lat="46.7606" lon="5.99853">
        <ele>673.54</ele>
        <time>2013-08-14T09:45:29Z</time>
      </trkpt>
      <trkpt lat="46.7605" lon="5.99849">
        <ele>674.02</ele>
        <time>2013-08-14T09:45:45Z</time>
      </trkpt>
      <trkpt lat="46.76044" lon="5.99846">
        <ele>674.5</ele>
        <time>2013-08-14T09:45:58Z</time>
      </trkpt>
      <trkpt lat="46.76044" lon="5.99841">
        <ele>674.02</ele>
        <time>2013-08-14T09:46:13Z</time>
      </trkpt>
      <trkpt lat="46.76038" lon="5.99839">
        <ele>674.5</ele>
        <time>2013-08-14T09:46:25Z</time>
      </trkpt>
      <trkpt lat="46.76021" lon="5.99828">
        <ele>674.02</ele>
        <time>2013-08-14T09:46:41Z</time>
      </trkpt>
      <trkpt lat="46.76008" lon="5.99815">
        <ele>674.02</ele>
        <time>2013-08-14T09:46:55Z</time>
      </trkpt>
      <trkpt lat="46.76007" lon="5.99815">
        <ele>674.02</ele>
        <time>2013-08-14T09:46:56Z</time>
      </trkpt>
      <trkpt lat="46.7599" lon="5.99808">
        <ele>673.54</ele>
        <time>2013-08-14T09:47:11Z</time>
      </trkpt>
      <trkpt lat="46.75976" lon="5.99797">
        <ele>673.06</ele>
        <time>2013-08-14T09:47:27Z</time>
      </trkpt>
      <trkpt lat="46.75965" lon="5.99782">
        <ele>672.58</ele>
        <time>2013-08-14T09:47:41Z</time>
      </trkpt>
      <trkpt lat="46.75959" lon="5.99778">
        <ele>673.06</ele>
        <time>2013-08-14T09:47:54Z</time>
      </trkpt>
      <trkpt lat="46.75955" lon="5.99774">
        <ele>672.1</ele>
        <time>2013-08-14T09:48:08Z</time>
      </trkpt>
      <trkpt lat="46.75954" lon="5.99771">
        <ele>673.54</ele>
        <time>2013-08-14T09:48:22Z</time>
      </trkpt>
      <trkpt lat="46.75953" lon="5.9977">
        <ele>673.06</ele>
        <time>2013-08-14T09:48:34Z</time>
      </trkpt>
      <trkpt lat="46.7595" lon="5.99768">
        <ele>672.1</ele>
        <time>2013-08-14T09:48:48Z</time>
      </trkpt>
      <trkpt lat="46.75949" lon="5.99769">
        <ele>672.1</ele>
        <time>2013-08-14T09:49:09Z</time>
      </trkpt>
      <trkpt lat="46.75947" lon="5.99767">
        <ele>672.1</ele>
        <time>2013-08-14T09:49:32Z</time>
      </trkpt>
      <trkpt lat="46.75938" lon="5.99761">
        <ele>672.58</ele>
        <time>2013-08-14T09:49:45Z</time>
      </trkpt>
      <trkpt lat="46.75917" lon="5.99766">
        <ele>674.02</ele>
        <time>2013-08-14T09:50:05Z</time>
      </trkpt>
      <trkpt lat="46.75902" lon="5.99777">
        <ele>671.62</ele>
        <time>2013-08-14T09:50:23Z</time>
      </trkpt>
      <trkpt lat="46.75904" lon="5.99777">
        <ele>669.7</ele>
        <time>2013-08-14T09:50:42Z</time>
      </trkpt>
      <trkpt lat="46.75905" lon="5.99776">
        <ele>667.77</ele>
        <time>2013-08-14T09:50:58Z</time>
      </trkpt>
      <trkpt lat="46.75901" lon="5.99774">
        <ele>666.81</ele>
        <time>2013-08-14T09:51:16Z</time>
      </trkpt>
      <trkpt lat="46.75894" lon="5.99773">
        <ele>665.85</ele>
        <time>2013-08-14T09:51:30Z</time>
      </trkpt>
      <trkpt lat="46.75887" lon="5.99754">
        <ele>662.97</ele>
        <time>2013-08-14T09:51:47Z</time>
      </trkpt>
      <trkpt lat="46.75886" lon="5.99747">
        <ele>663.45</ele>
        <time>2013-08-14T09:52:05Z</time>
      </trkpt>
      <trkpt lat="46.75884" lon="5.99746">
        <ele>662.49</ele>
        <time>2013-08-14T09:52:28Z</time>
      </trkpt>
      <trkpt lat="46.75885" lon="5.99734">
        <ele>662.97</ele>
        <time>2013-08-14T09:52:45Z</time>
      </trkpt>
      <trkpt lat="46.75891" lon="5.99703">
        <ele>662.49</ele>
        <time>2013-08-14T09:53:07Z</time>
      </trkpt>
      <trkpt lat="46.75893" lon="5.99695">
        <ele>667.77</ele>
        <time>2013-08-14T09:53:26Z</time>
      </trkpt>
      <trkpt lat="46.75892" lon="5.99697">
        <ele>667.29</ele>
        <time>2013-08-14T09:53:43Z</time>
      </trkpt>
      <trkpt lat="46.7589" lon="5.99697">
        <ele>666.33</ele>
        <time>2013-08-14T09:53:57Z</time>
      </trkpt>
      <trkpt lat="46.75887" lon="5.99698">
        <ele>666.81</ele>
        <time>2013-08-14T09:54:14Z</time>
      </trkpt>
      <trkpt lat="46.75885" lon="5.99702">
        <ele>665.85</ele>
        <time>2013-08-14T09:54:26Z</time>
      </trkpt>
      <trkpt lat="46.75885" lon="5.99709">
        <ele>664.89</ele>
        <time>2013-08-14T09:54:32Z</time>
      </trkpt>
      <trkpt lat="46.75877" lon="5.9972">
        <ele>663.45</ele>
        <time>2013-08-14T09:54:46Z</time>
      </trkpt>
      <trkpt lat="46.75864" lon="5.99712">
        <ele>660.08</ele>
        <time>2013-08-14T09:55:10Z</time>
      </trkpt>
      <trkpt lat="46.75866" lon="5.99681">
        <ele>659.12</ele>
        <time>2013-08-14T09:55:33Z</time>
      </trkpt>
      <trkpt lat="46.75864" lon="5.99674">
        <ele>658.64</ele>
        <time>2013-08-14T09:55:52Z</time>
      </trkpt>
      <trkpt lat="46.75855" lon="5.99673">
        <ele>658.64</ele>
        <time>2013-08-14T09:56:10Z</time>
      </trkpt>
      <trkpt lat="46.75841" lon="5.99686">
        <ele>660.08</ele>
        <time>2013-08-14T09:56:31Z</time>
      </trkpt>
      <trkpt lat="46.75829" lon="5.99697">
        <ele>660.56</ele>
        <time>2013-08-14T09:56:43Z</time>
      </trkpt>
      <trkpt lat="46.75818" lon="5.99703">
        <ele>663.93</ele>
        <time>2013-08-14T09:56:58Z</time>
      </trkpt>
      <trkpt lat="46.75818" lon="5.99712">
        <ele>662.49</ele>
        <time>2013-08-14T09:57:09Z</time>
      </trkpt>
      <trkpt lat="46.75814" lon="5.99741">
        <ele>657.2</ele>
        <time>2013-08-14T09:57:29Z</time>
      </trkpt>
      <trkpt lat="46.75816" lon="5.99769">
        <ele>650.95</ele>
        <time>2013-08-14T09:57:47Z</time>
      </trkpt>
      <trkpt lat="46.7581" lon="5.99804">
        <ele>642.78</ele>
        <time>2013-08-14T09:58:10Z</time>
      </trkpt>
      <trkpt lat="46.75812" lon="5.99815">
        <ele>640.38</ele>
        <time>2013-08-14T09:58:27Z</time>
      </trkpt>
      <trkpt lat="46.75809" lon="5.99818">
        <ele>642.3</ele>
        <time>2013-08-14T09:58:45Z</time>
      </trkpt>
      <trkpt lat="46.75807" lon="5.99827">
        <ele>641.82</ele>
        <time>2013-08-14T09:59:10Z</time>
      </trkpt>
      <trkpt lat="46.75808" lon="5.99827">
        <ele>643.74</ele>
        <time>2013-08-14T09:59:35Z</time>
      </trkpt>
      <trkpt lat="46.75802" lon="5.99826">
        <ele>644.7</ele>
        <time>2013-08-14T09:59:53Z</time>
      </trkpt>
      <trkpt lat="46.75802" lon="5.99825">
        <ele>644.22</ele>
        <time>2013-08-14T10:00:12Z</time>
      </trkpt>
      <trkpt lat="46.75801" lon="5.99816">
        <ele>644.22</ele>
        <time>2013-08-14T10:00:31Z</time>
      </trkpt>
      <trkpt lat="46.75783" lon="5.99815">
        <ele>647.59</ele>
        <time>2013-08-14T10:00:50Z</time>
      </trkpt>
      <trkpt lat="46.75775" lon="5.9981">
        <ele>649.99</ele>
        <time>2013-08-14T10:01:06Z</time>
      </trkpt>
      <trkpt lat="46.75778" lon="5.99807">
        <ele>648.55</ele>
        <time>2013-08-14T10:01:26Z</time>
      </trkpt>
      <trkpt lat="46.75782" lon="5.99808">
        <ele>649.03</ele>
        <time>2013-08-14T10:01:44Z</time>
      </trkpt>
      <trkpt lat="46.75784" lon="5.99807">
        <ele>649.03</ele>
        <time>2013-08-14T10:01:58Z</time>
      </trkpt>
      <trkpt lat="46.75783" lon="5.99807">
        <ele>649.03</ele>
        <time>2013-08-14T10:02:22Z</time>
      </trkpt>
      <trkpt lat="46.75783" lon="5.99803">
        <ele>649.03</ele>
        <time>2013-08-14T10:02:41Z</time>
      </trkpt>
      <trkpt lat="46.75783" lon="5.99797">
        <ele>648.55</ele>
        <time>2013-08-14T10:03:00Z</time>
      </trkpt>
      <trkpt lat="46.75784" lon="5.99792">
        <ele>647.59</ele>
        <time>2013-08-14T10:03:22Z</time>
      </trkpt>
      <trkpt lat="46.7579" lon="5.99792">
        <ele>647.59</ele>
        <time>2013-08-14T10:03:50Z</time>
      </trkpt>
      <trkpt lat="46.7579" lon="5.99792">
        <ele>648.07</ele>
        <time>2013-08-14T10:04:21Z</time>
      </trkpt>
      <trkpt lat="46.7579" lon="5.99794">
        <ele>649.03</ele>
        <time>2013-08-14T10:04:52Z</time>
      </trkpt>
      <trkpt lat="46.7579" lon="5.99795">
        <ele>649.51</ele>
        <time>2013-08-14T10:05:20Z</time>
      </trkpt>
      <trkpt lat="46.75789" lon="5.99796">
        <ele>650.95</ele>
        <time>2013-08-14T10:05:45Z</time>
      </trkpt>
      <trkpt lat="46.75789" lon="5.99795">
        <ele>650.95</ele>
        <time>2013-08-14T10:06:07Z</time>
      </trkpt>
      <trkpt lat="46.75789" lon="5.99793">
        <ele>650.47</ele>
        <time>2013-08-14T10:06:24Z</time>
      </trkpt>
      <trkpt lat="46.75789" lon="5.99792">
        <ele>650.47</ele>
        <time>2013-08-14T10:06:44Z</time>
      </trkpt>
      <trkpt lat="46.75789" lon="5.99793">
        <ele>649.99</ele>
        <time>2013-08-14T10:07:18Z</time>
      </trkpt>
      <trkpt lat="46.75789" lon="5.99793">
        <ele>650.47</ele>
        <time>2013-08-14T10:07:40Z</time>
      </trkpt>
      <trkpt lat="46.75789" lon="5.99792">
        <ele>649.99</ele>
        <time>2013-08-14T10:08:06Z</time>
      </trkpt>
      <trkpt lat="46.75789" lon="5.99792">
        <ele>649.99</ele>
        <time>2013-08-14T10:08:34Z</time>
      </trkpt>
      <trkpt lat="46.75789" lon="5.99792">
        <ele>649.99</ele>
        <time>2013-08-14T10:09:03Z</time>
      </trkpt>
      <trkpt lat="46.75789" lon="5.99792">
        <ele>649.99</ele>
        <time>2013-08-14T10:09:32Z</time>
      </trkpt>
      <trkpt lat="46.75787" lon="5.99791">
        <ele>649.99</ele>
        <time>2013-08-14T10:10:03Z</time>
      </trkpt>
      <trkpt lat="46.75787" lon="5.99791">
        <ele>649.99</ele>
        <time>2013-08-14T10:10:10Z</time>
      </trkpt>
      <trkpt lat="46.75799" lon="5.99791">
        <ele>633.65</ele>
        <time>2013-08-14T10:37:00Z</time>
      </trkpt>
      <trkpt lat="46.75798" lon="5.99796">
        <ele>636.53</ele>
        <time>2013-08-14T10:37:30Z</time>
      </trkpt>
      <trkpt lat="46.75789" lon="5.99802">
        <ele>638.93</ele>
        <time>2013-08-14T10:37:43Z</time>
      </trkpt>
      <trkpt lat="46.75783" lon="5.99806">
        <ele>638.93</ele>
        <time>2013-08-14T10:37:58Z</time>
      </trkpt>
      <trkpt lat="46.75782" lon="5.99809">
        <ele>638.93</ele>
        <time>2013-08-14T10:38:17Z</time>
      </trkpt>
      <trkpt lat="46.75775" lon="5.99806">
        <ele>638.45</ele>
        <time>2013-08-14T10:38:38Z</time>
      </trkpt>
      <trkpt lat="46.75769" lon="5.99806">
        <ele>636.53</ele>
        <time>2013-08-14T10:38:51Z</time>
      </trkpt>
      <trkpt lat="46.7576" lon="5.99798">
        <ele>633.17</ele>
        <time>2013-08-14T10:39:11Z</time>
      </trkpt>
      <trkpt lat="46.75758" lon="5.99797">
        <ele>632.2</ele>
        <time>2013-08-14T10:39:13Z</time>
      </trkpt>
      <trkpt lat="46.75737" lon="5.99787">
        <ele>634.13</ele>
        <time>2013-08-14T10:39:29Z</time>
      </trkpt>
      <trkpt lat="46.75738" lon="5.998">
        <ele>647.59</ele>
        <time>2013-08-14T10:47:52Z</time>
      </trkpt>
      <trkpt lat="46.75741" lon="5.99826">
        <ele>648.55</ele>
        <time>2013-08-14T10:48:08Z</time>
      </trkpt>
      <trkpt lat="46.75742" lon="5.99858">
        <ele>648.07</ele>
        <time>2013-08-14T10:48:26Z</time>
      </trkpt>
      <trkpt lat="46.7574" lon="5.99866">
        <ele>647.1</ele>
        <time>2013-08-14T10:48:32Z</time>
      </trkpt>
      <trkpt lat="46.75734" lon="5.99886">
        <ele>645.66</ele>
        <time>2013-08-14T10:48:49Z</time>
      </trkpt>
      <trkpt lat="46.75727" lon="5.99933">
        <ele>644.22</ele>
        <time>2013-08-14T10:49:10Z</time>
      </trkpt>
      <trkpt lat="46.75729" lon="5.99958">
        <ele>642.78</ele>
        <time>2013-08-14T10:49:25Z</time>
      </trkpt>
      <trkpt lat="46.75731" lon="5.99969">
        <ele>642.78</ele>
        <time>2013-08-14T10:49:31Z</time>
      </trkpt>
      <trkpt lat="46.7573" lon="5.99976">
        <ele>640.38</ele>
        <time>2013-08-14T10:49:36Z</time>
      </trkpt>
      <trkpt lat="46.75727" lon="5.99981">
        <ele>637.49</ele>
        <time>2013-08-14T10:49:40Z</time>
      </trkpt>
      <trkpt lat="46.7572" lon="5.99989">
        <ele>632.2</ele>
        <time>2013-08-14T10:49:48Z</time>
      </trkpt>
      <trkpt lat="46.75713" lon="6.00008">
        <ele>628.84</ele>
        <time>2013-08-14T10:50:02Z</time>
      </trkpt>
      <trkpt lat="46.7571" lon="6.00031">
        <ele>634.61</ele>
        <time>2013-08-14T10:50:16Z</time>
      </trkpt>
      <trkpt lat="46.75709" lon="6.00048">
        <ele>633.65</ele>
        <time>2013-08-14T10:50:27Z</time>
      </trkpt>
      <trkpt lat="46.75709" lon="6.0005">
        <ele>633.17</ele>
        <time>2013-08-14T10:50:28Z</time>
      </trkpt>
      <trkpt lat="46.7571" lon="6.00054">
        <ele>633.65</ele>
        <time>2013-08-14T10:50:30Z</time>
      </trkpt>
      <trkpt lat="46.75714" lon="6.00075">
        <ele>634.61</ele>
        <time>2013-08-14T10:50:44Z</time>
      </trkpt>
      <trkpt lat="46.7571" lon="6.00087">
        <ele>635.57</ele>
        <time>2013-08-14T10:50:57Z</time>
      </trkpt>
      <trkpt lat="46.75709" lon="6.00109">
        <ele>639.89</ele>
        <time>2013-08-14T10:51:11Z</time>
      </trkpt>
      <trkpt lat="46.75708" lon="6.00115">
        <ele>639.89</ele>
        <time>2013-08-14T10:51:16Z</time>
      </trkpt>
      <trkpt lat="46.75707" lon="6.00125">
        <ele>639.89</ele>
        <time>2013-08-14T10:51:24Z</time>
      </trkpt>
      <trkpt lat="46.7571" lon="6.00145">
        <ele>641.82</ele>
        <time>2013-08-14T10:51:36Z</time>
      </trkpt>
      <trkpt lat="46.75713" lon="6.00156">
        <ele>643.74</ele>
        <time>2013-08-14T10:51:46Z</time>
      </trkpt>
      <trkpt lat="46.75714" lon="6.00167">
        <ele>645.66</ele>
        <time>2013-08-14T10:51:57Z</time>
      </trkpt>
      <trkpt lat="46.75718" lon="6.00179">
        <ele>647.1</ele>
        <time>2013-08-14T10:52:09Z</time>
      </trkpt>
      <trkpt lat="46.75721" lon="6.00193">
        <ele>648.55</ele>
        <time>2013-08-14T10:52:22Z</time>
      </trkpt>
      <trkpt lat="46.75721" lon="6.00209">
        <ele>648.55</ele>
        <time>2013-08-14T10:52:36Z</time>
      </trkpt>
      <trkpt lat="46.75724" lon="6.00217">
        <ele>648.55</ele>
        <time>2013-08-14T10:52:44Z</time>
      </trkpt>
      <trkpt lat="46.75727" lon="6.00237">
        <ele>647.1</ele>
        <time>2013-08-14T10:52:57Z</time>
      </trkpt>
      <trkpt lat="46.75727" lon="6.00241">
        <ele>647.1</ele>
        <time>2013-08-14T10:53:00Z</time>
      </trkpt>
      <trkpt lat="46.75725" lon="6.00259">
        <ele>645.18</ele>
        <time>2013-08-14T10:53:12Z</time>
      </trkpt>
      <trkpt lat="46.75728" lon="6.00275">
        <ele>644.22</ele>
        <time>2013-08-14T10:53:28Z</time>
      </trkpt>
      <trkpt lat="46.7573" lon="6.00282">
        <ele>644.7</ele>
        <time>2013-08-14T10:53:36Z</time>
      </trkpt>
      <trkpt lat="46.7573" lon="6.00286">
        <ele>645.66</ele>
        <time>2013-08-14T10:53:38Z</time>
      </trkpt>
      <trkpt lat="46.7573" lon="6.00295">
        <ele>649.03</ele>
        <time>2013-08-14T10:53:44Z</time>
      </trkpt>
      <trkpt lat="46.75728" lon="6.00317">
        <ele>649.99</ele>
        <time>2013-08-14T10:53:58Z</time>
      </trkpt>
      <trkpt lat="46.75723" lon="6.00334">
        <ele>646.62</ele>
        <time>2013-08-14T10:54:12Z</time>
      </trkpt>
      <trkpt lat="46.75728" lon="6.00351">
        <ele>642.3</ele>
        <time>2013-08-14T10:54:27Z</time>
      </trkpt>
      <trkpt lat="46.75726" lon="6.0037">
        <ele>637.01</ele>
        <time>2013-08-14T10:54:43Z</time>
      </trkpt>
      <trkpt lat="46.75724" lon="6.00381">
        <ele>636.53</ele>
        <time>2013-08-14T10:54:51Z</time>
      </trkpt>
      <trkpt lat="46.75722" lon="6.00386">
        <ele>637.49</ele>
        <time>2013-08-14T10:54:54Z</time>
      </trkpt>
      <trkpt lat="46.75709" lon="6.00421">
        <ele>656.24</ele>
        <time>2013-08-14T10:55:08Z</time>
      </trkpt>
      <trkpt lat="46.757" lon="6.00442">
        <ele>660.56</ele>
        <time>2013-08-14T10:55:25Z</time>
      </trkpt>
      <trkpt lat="46.75699" lon="6.00457">
        <ele>659.12</ele>
        <time>2013-08-14T10:55:38Z</time>
      </trkpt>
      <trkpt lat="46.75694" lon="6.00476">
        <ele>658.16</ele>
        <time>2013-08-14T10:55:50Z</time>
      </trkpt>
      <trkpt lat="46.75692" lon="6.00481">
        <ele>658.64</ele>
        <time>2013-08-14T10:55:52Z</time>
      </trkpt>
      <trkpt lat="46.75681" lon="6.005">
        <ele>656.24</ele>
        <time>2013-08-14T10:56:04Z</time>
      </trkpt>
      <trkpt lat="46.7569" lon="6.00514">
        <ele>656.24</ele>
        <time>2013-08-14T10:56:13Z</time>
      </trkpt>
      <trkpt lat="46.75686" lon="6.00535">
        <ele>654.31</ele>
        <time>2013-08-14T10:56:27Z</time>
      </trkpt>
      <trkpt lat="46.75684" lon="6.00553">
        <ele>649.99</ele>
        <time>2013-08-14T10:56:40Z</time>
      </trkpt>
      <trkpt lat="46.75684" lon="6.00576">
        <ele>652.87</ele>
        <time>2013-08-14T10:56:55Z</time>
      </trkpt>
      <trkpt lat="46.75684" lon="6.00577">
        <ele>660.56</ele>
        <time>2013-08-14T10:57:10Z</time>
      </trkpt>
      <trkpt lat="46.75682" lon="6.00593">
        <ele>663.45</ele>
        <time>2013-08-14T10:57:22Z</time>
      </trkpt>
      <trkpt lat="46.75681" lon="6.00599">
        <ele>664.41</ele>
        <time>2013-08-14T10:57:26Z</time>
      </trkpt>
      <trkpt lat="46.75666" lon="6.00612">
        <ele>663.45</ele>
        <time>2013-08-14T10:57:39Z</time>
      </trkpt>
      <trkpt lat="46.75676" lon="6.00626">
        <ele>663.93</ele>
        <time>2013-08-14T10:57:46Z</time>
      </trkpt>
      <trkpt lat="46.75685" lon="6.00649">
        <ele>667.77</ele>
        <time>2013-08-14T10:58:01Z</time>
      </trkpt>
      <trkpt lat="46.75693" lon="6.00667">
        <ele>670.66</ele>
        <time>2013-08-14T10:58:09Z</time>
      </trkpt>
      <trkpt lat="46.75692" lon="6.00688">
        <ele>671.14</ele>
        <time>2013-08-14T10:58:22Z</time>
      </trkpt>
      <trkpt lat="46.75681" lon="6.00709">
        <ele>671.14</ele>
        <time>2013-08-14T10:58:42Z</time>
      </trkpt>
      <trkpt lat="46.75675" lon="6.00719">
        <ele>672.1</ele>
        <time>2013-08-14T10:58:56Z</time>
      </trkpt>
      <trkpt lat="46.75675" lon="6.00733">
        <ele>670.66</ele>
        <time>2013-08-14T10:59:09Z</time>
      </trkpt>
      <trkpt lat="46.75675" lon="6.00749">
        <ele>668.73</ele>
        <time>2013-08-14T10:59:23Z</time>
      </trkpt>
      <trkpt lat="46.75675" lon="6.0076">
        <ele>667.77</ele>
        <time>2013-08-14T10:59:31Z</time>
      </trkpt>
      <trkpt lat="46.75676" lon="6.00777">
        <ele>667.77</ele>
        <time>2013-08-14T10:59:39Z</time>
      </trkpt>
      <trkpt lat="46.75681" lon="6.00788">
        <ele>668.25</ele>
        <time>2013-08-14T10:59:45Z</time>
      </trkpt>
      <trkpt lat="46.75681" lon="6.00805">
        <ele>669.7</ele>
        <time>2013-08-14T10:59:53Z</time>
      </trkpt>
      <trkpt lat="46.75681" lon="6.00819">
        <ele>667.77</ele>
        <time>2013-08-14T11:00:05Z</time>
      </trkpt>
      <trkpt lat="46.75679" lon="6.00845">
        <ele>665.85</ele>
        <time>2013-08-14T11:00:22Z</time>
      </trkpt>
      <trkpt lat="46.75677" lon="6.00867">
        <ele>664.89</ele>
        <time>2013-08-14T11:00:34Z</time>
      </trkpt>
      <trkpt lat="46.75676" lon="6.00872">
        <ele>663.93</ele>
        <time>2013-08-14T11:00:38Z</time>
      </trkpt>
      <trkpt lat="46.75676" lon="6.00888">
        <ele>664.41</ele>
        <time>2013-08-14T11:00:49Z</time>
      </trkpt>
      <trkpt lat="46.75676" lon="6.00912">
        <ele>663.93</ele>
        <time>2013-08-14T11:01:06Z</time>
      </trkpt>
      <trkpt lat="46.75673" lon="6.00918">
        <ele>663.93</ele>
        <time>2013-08-14T11:01:11Z</time>
      </trkpt>
      <trkpt lat="46.7567" lon="6.00932">
        <ele>663.93</ele>
        <time>2013-08-14T11:01:21Z</time>
      </trkpt>
      <trkpt lat="46.75665" lon="6.0095">
        <ele>662.49</ele>
        <time>2013-08-14T11:01:36Z</time>
      </trkpt>
      <trkpt lat="46.75657" lon="6.00974">
        <ele>668.25</ele>
        <time>2013-08-14T11:01:50Z</time>
      </trkpt>
      <trkpt lat="46.75652" lon="6.00991">
        <ele>670.18</ele>
        <time>2013-08-14T11:02:06Z</time>
      </trkpt>
      <trkpt lat="46.75642" lon="6.0101">
        <ele>670.18</ele>
        <time>2013-08-14T11:02:19Z</time>
      </trkpt>
      <trkpt lat="46.75632" lon="6.01024">
        <ele>668.25</ele>
        <time>2013-08-14T11:02:33Z</time>
      </trkpt>
      <trkpt lat="46.75621" lon="6.01033">
        <ele>669.7</ele>
        <time>2013-08-14T11:02:47Z</time>
      </trkpt>
      <trkpt lat="46.75619" lon="6.01033">
        <ele>669.22</ele>
        <time>2013-08-14T11:02:50Z</time>
      </trkpt>
      <trkpt lat="46.75609" lon="6.0103">
        <ele>669.7</ele>
        <time>2013-08-14T11:03:02Z</time>
      </trkpt>
      <trkpt lat="46.75608" lon="6.0103">
        <ele>670.18</ele>
        <time>2013-08-14T11:03:03Z</time>
      </trkpt>
      <trkpt lat="46.75587" lon="6.01031">
        <ele>676.42</ele>
        <time>2013-08-14T11:03:18Z</time>
      </trkpt>
      <trkpt lat="46.75581" lon="6.01027">
        <ele>677.39</ele>
        <time>2013-08-14T11:03:24Z</time>
      </trkpt>
      <trkpt lat="46.75568" lon="6.01028">
        <ele>680.75</ele>
        <time>2013-08-14T11:03:37Z</time>
      </trkpt>
      <trkpt lat="46.75557" lon="6.01032">
        <ele>682.19</ele>
        <time>2013-08-14T11:03:51Z</time>
      </trkpt>
      <trkpt lat="46.75549" lon="6.01049">
        <ele>686.04</ele>
        <time>2013-08-14T11:04:05Z</time>
      </trkpt>
      <trkpt lat="46.7555" lon="6.01059">
        <ele>684.6</ele>
        <time>2013-08-14T11:04:12Z</time>
      </trkpt>
      <trkpt lat="46.75553" lon="6.01066">
        <ele>684.12</ele>
        <time>2013-08-14T11:04:17Z</time>
      </trkpt>
      <trkpt lat="46.75562" lon="6.01077">
        <ele>687.48</ele>
        <time>2013-08-14T11:04:27Z</time>
      </trkpt>
      <trkpt lat="46.75572" lon="6.01093">
        <ele>689.88</ele>
        <time>2013-08-14T11:04:40Z</time>
      </trkpt>
      <trkpt lat="46.75575" lon="6.01114">
        <ele>691.81</ele>
        <time>2013-08-14T11:04:55Z</time>
      </trkpt>
      <trkpt lat="46.75577" lon="6.01118">
        <ele>691.33</ele>
        <time>2013-08-14T11:05:11Z</time>
      </trkpt>
      <trkpt lat="46.75581" lon="6.01129">
        <ele>690.84</ele>
        <time>2013-08-14T11:05:28Z</time>
      </trkpt>
      <trkpt lat="46.75581" lon="6.01135">
        <ele>690.84</ele>
        <time>2013-08-14T11:05:50Z</time>
      </trkpt>
      <trkpt lat="46.75582" lon="6.01143">
        <ele>689.4</ele>
        <time>2013-08-14T11:06:06Z</time>
      </trkpt>
      <trkpt lat="46.75585" lon="6.01155">
        <ele>688.92</ele>
        <time>2013-08-14T11:06:21Z</time>
      </trkpt>
      <trkpt lat="46.75594" lon="6.01161">
        <ele>690.84</ele>
        <time>2013-08-14T11:06:38Z</time>
      </trkpt>
      <trkpt lat="46.75594" lon="6.01165">
        <ele>690.36</ele>
        <time>2013-08-14T11:06:52Z</time>
      </trkpt>
      <trkpt lat="46.75591" lon="6.01179">
        <ele>689.88</ele>
        <time>2013-08-14T11:07:09Z</time>
      </trkpt>
      <trkpt lat="46.7559" lon="6.01187">
        <ele>688.92</ele>
        <time>2013-08-14T11:07:24Z</time>
      </trkpt>
      <trkpt lat="46.75595" lon="6.01187">
        <ele>688.44</ele>
        <time>2013-08-14T11:07:35Z</time>
      </trkpt>
      <trkpt lat="46.75598" lon="6.01186">
        <ele>687.48</ele>
        <time>2013-08-14T11:07:57Z</time>
      </trkpt>
      <trkpt lat="46.75605" lon="6.01183">
        <ele>687.96</ele>
        <time>2013-08-14T11:08:09Z</time>
      </trkpt>
      <trkpt lat="46.75611" lon="6.01178">
        <ele>687.96</ele>
        <time>2013-08-14T11:08:21Z</time>
      </trkpt>
      <trkpt lat="46.75624" lon="6.01187">
        <ele>686.52</ele>
        <time>2013-08-14T11:08:36Z</time>
      </trkpt>
      <trkpt lat="46.7564" lon="6.01204">
        <ele>687.48</ele>
        <time>2013-08-14T11:08:51Z</time>
      </trkpt>
      <trkpt lat="46.7564" lon="6.01214">
        <ele>689.4</ele>
        <time>2013-08-14T11:09:01Z</time>
      </trkpt>
      <trkpt lat="46.75641" lon="6.01215">
        <ele>689.88</ele>
        <time>2013-08-14T11:09:03Z</time>
      </trkpt>
      <trkpt lat="46.75653" lon="6.0122">
        <ele>691.33</ele>
        <time>2013-08-14T11:09:16Z</time>
      </trkpt>
      <trkpt lat="46.75663" lon="6.01227">
        <ele>692.29</ele>
        <time>2013-08-14T11:09:27Z</time>
      </trkpt>
      <trkpt lat="46.7567" lon="6.01236">
        <ele>693.25</ele>
        <time>2013-08-14T11:09:40Z</time>
      </trkpt>
      <trkpt lat="46.75684" lon="6.01246">
        <ele>693.25</ele>
        <time>2013-08-14T11:09:56Z</time>
      </trkpt>
      <trkpt lat="46.75694" lon="6.01255">
        <ele>697.57</ele>
        <time>2013-08-14T11:10:08Z</time>
      </trkpt>
      <trkpt lat="46.75699" lon="6.01267">
        <ele>699.5</ele>
        <time>2013-08-14T11:10:20Z</time>
      </trkpt>
      <trkpt lat="46.75704" lon="6.01275">
        <ele>699.5</ele>
        <time>2013-08-14T11:10:32Z</time>
      </trkpt>
      <trkpt lat="46.7571" lon="6.01287">
        <ele>699.98</ele>
        <time>2013-08-14T11:10:46Z</time>
      </trkpt>
      <trkpt lat="46.75721" lon="6.01293">
        <ele>699.5</ele>
        <time>2013-08-14T11:10:59Z</time>
      </trkpt>
      <trkpt lat="46.75723" lon="6.01293">
        <ele>700.46</ele>
        <time>2013-08-14T11:11:03Z</time>
      </trkpt>
      <trkpt lat="46.7574" lon="6.01307">
        <ele>699.98</ele>
        <time>2013-08-14T11:11:20Z</time>
      </trkpt>
      <trkpt lat="46.75744" lon="6.01311">
        <ele>699.5</ele>
        <time>2013-08-14T11:11:26Z</time>
      </trkpt>
      <trkpt lat="46.75756" lon="6.01324">
        <ele>698.53</ele>
        <time>2013-08-14T11:11:43Z</time>
      </trkpt>
      <trkpt lat="46.75775" lon="6.01333">
        <ele>700.94</ele>
        <time>2013-08-14T11:12:00Z</time>
      </trkpt>
      <trkpt lat="46.75789" lon="6.01353">
        <ele>700.94</ele>
        <time>2013-08-14T11:12:15Z</time>
      </trkpt>
      <trkpt lat="46.75793" lon="6.01358">
        <ele>699.5</ele>
        <time>2013-08-14T11:12:18Z</time>
      </trkpt>
      <trkpt lat="46.75808" lon="6.01373">
        <ele>700.94</ele>
        <time>2013-08-14T11:12:34Z</time>
      </trkpt>
      <trkpt lat="46.75818" lon="6.0138">
        <ele>699.98</ele>
        <time>2013-08-14T11:12:46Z</time>
      </trkpt>
      <trkpt lat="46.75828" lon="6.0139">
        <ele>697.57</ele>
        <time>2013-08-14T11:13:00Z</time>
      </trkpt>
      <trkpt lat="46.75834" lon="6.0139">
        <ele>696.13</ele>
        <time>2013-08-14T11:13:17Z</time>
      </trkpt>
      <trkpt lat="46.75836" lon="6.01389">
        <ele>696.13</ele>
        <time>2013-08-14T11:13:37Z</time>
      </trkpt>
      <trkpt lat="46.75836" lon="6.01389">
        <ele>696.61</ele>
        <time>2013-08-14T11:13:58Z</time>
      </trkpt>
      <trkpt lat="46.75836" lon="6.01395">
        <ele>696.61</ele>
        <time>2013-08-14T11:14:19Z</time>
      </trkpt>
      <trkpt lat="46.75835" lon="6.01414">
        <ele>694.69</ele>
        <time>2013-08-14T11:14:30Z</time>
      </trkpt>
      <trkpt lat="46.75834" lon="6.01419">
        <ele>693.73</ele>
        <time>2013-08-14T11:14:33Z</time>
      </trkpt>
      <trkpt lat="46.75834" lon="6.01424">
        <ele>693.25</ele>
        <time>2013-08-14T11:14:36Z</time>
      </trkpt>
      <trkpt lat="46.75838" lon="6.01443">
        <ele>690.36</ele>
        <time>2013-08-14T11:14:47Z</time>
      </trkpt>
      <trkpt lat="46.75836" lon="6.0145">
        <ele>688.44</ele>
        <time>2013-08-14T11:14:52Z</time>
      </trkpt>
      <trkpt lat="46.75835" lon="6.01477">
        <ele>682.67</ele>
        <time>2013-08-14T11:15:08Z</time>
      </trkpt>
      <trkpt lat="46.75831" lon="6.01505">
        <ele>676.42</ele>
        <time>2013-08-14T11:15:26Z</time>
      </trkpt>
      <trkpt lat="46.75825" lon="6.01521">
        <ele>671.62</ele>
        <time>2013-08-14T11:15:42Z</time>
      </trkpt>
      <trkpt lat="46.75817" lon="6.01547">
        <ele>667.77</ele>
        <time>2013-08-14T11:16:01Z</time>
      </trkpt>
      <trkpt lat="46.75805" lon="6.01578">
        <ele>662.97</ele>
        <time>2013-08-14T11:16:20Z</time>
      </trkpt>
      <trkpt lat="46.75801" lon="6.01589">
        <ele>661.52</ele>
        <time>2013-08-14T11:16:27Z</time>
      </trkpt>
      <trkpt lat="46.75788" lon="6.01614">
        <ele>659.12</ele>
        <time>2013-08-14T11:16:45Z</time>
      </trkpt>
      <trkpt lat="46.75772" lon="6.01638">
        <ele>678.35</ele>
        <time>2013-08-14T11:16:59Z</time>
      </trkpt>
      <trkpt lat="46.75762" lon="6.01639">
        <ele>678.35</ele>
        <time>2013-08-14T11:17:12Z</time>
      </trkpt>
      <trkpt lat="46.75757" lon="6.0164">
        <ele>678.35</ele>
        <time>2013-08-14T11:17:16Z</time>
      </trkpt>
      <trkpt lat="46.75742" lon="6.01641">
        <ele>677.39</ele>
        <time>2013-08-14T11:17:27Z</time>
      </trkpt>
      <trkpt lat="46.7572" lon="6.01621">
        <ele>676.42</ele>
        <time>2013-08-14T11:17:45Z</time>
      </trkpt>
      <trkpt lat="46.75701" lon="6.01604">
        <ele>682.67</ele>
        <time>2013-08-14T11:18:05Z</time>
      </trkpt>
      <trkpt lat="46.75698" lon="6.01603">
        <ele>683.63</ele>
        <time>2013-08-14T11:18:09Z</time>
      </trkpt>
      <trkpt lat="46.75683" lon="6.01609">
        <ele>683.15</ele>
        <time>2013-08-14T11:18:24Z</time>
      </trkpt>
      <trkpt lat="46.75666" lon="6.01622">
        <ele>681.23</ele>
        <time>2013-08-14T11:18:39Z</time>
      </trkpt>
      <trkpt lat="46.75637" lon="6.0165">
        <ele>681.71</ele>
        <time>2013-08-14T11:19:02Z</time>
      </trkpt>
      <trkpt lat="46.75621" lon="6.01664">
        <ele>675.94</ele>
        <time>2013-08-14T11:19:19Z</time>
      </trkpt>
      <trkpt lat="46.75613" lon="6.01678">
        <ele>679.31</ele>
        <time>2013-08-14T11:19:36Z</time>
      </trkpt>
      <trkpt lat="46.75617" lon="6.01684">
        <ele>680.75</ele>
        <time>2013-08-14T11:19:52Z</time>
      </trkpt>
      <trkpt lat="46.7562" lon="6.01686">
        <ele>681.71</ele>
        <time>2013-08-14T11:20:01Z</time>
      </trkpt>
      <trkpt lat="46.75637" lon="6.01696">
        <ele>682.67</ele>
        <time>2013-08-14T11:20:19Z</time>
      </trkpt>
      <trkpt lat="46.75652" lon="6.017">
        <ele>685.08</ele>
        <time>2013-08-14T11:20:27Z</time>
      </trkpt>
      <trkpt lat="46.75671" lon="6.01701">
        <ele>686.52</ele>
        <time>2013-08-14T11:20:40Z</time>
      </trkpt>
      <trkpt lat="46.75684" lon="6.01703">
        <ele>685.56</ele>
        <time>2013-08-14T11:20:52Z</time>
      </trkpt>
      <trkpt lat="46.75694" lon="6.01702">
        <ele>682.67</ele>
        <time>2013-08-14T11:21:05Z</time>
      </trkpt>
      <trkpt lat="46.75697" lon="6.01701">
        <ele>681.71</ele>
        <time>2013-08-14T11:21:21Z</time>
      </trkpt>
      <trkpt lat="46.75706" lon="6.01706">
        <ele>679.79</ele>
        <time>2013-08-14T11:21:35Z</time>
      </trkpt>
      <trkpt lat="46.75709" lon="6.01709">
        <ele>679.31</ele>
        <time>2013-08-14T11:21:37Z</time>
      </trkpt>
      <trkpt lat="46.75717" lon="6.01718">
        <ele>673.06</ele>
        <time>2013-08-14T11:21:49Z</time>
      </trkpt>
      <trkpt lat="46.75719" lon="6.0172">
        <ele>670.18</ele>
        <time>2013-08-14T11:22:04Z</time>
      </trkpt>
      <trkpt lat="46.75723" lon="6.01724">
        <ele>669.7</ele>
        <time>2013-08-14T11:22:25Z</time>
      </trkpt>
      <trkpt lat="46.75725" lon="6.01721">
        <ele>668.73</ele>
        <time>2013-08-14T11:22:40Z</time>
      </trkpt>
      <trkpt lat="46.75725" lon="6.01713">
        <ele>667.29</ele>
        <time>2013-08-14T11:22:55Z</time>
      </trkpt>
      <trkpt lat="46.75725" lon="6.0171">
        <ele>667.77</ele>
        <time>2013-08-14T11:23:16Z</time>
      </trkpt>
      <trkpt lat="46.75725" lon="6.0171">
        <ele>667.77</ele>
        <time>2013-08-14T11:23:38Z</time>
      </trkpt>
      <trkpt lat="46.75726" lon="6.0171">
        <ele>667.77</ele>
        <time>2013-08-14T11:24:02Z</time>
      </trkpt>
      <trkpt lat="46.75725" lon="6.0171">
        <ele>667.77</ele>
        <time>2013-08-14T11:24:26Z</time>
      </trkpt>
      <trkpt lat="46.75723" lon="6.01709">
        <ele>667.77</ele>
        <time>2013-08-14T11:24:50Z</time>
      </trkpt>
      <trkpt lat="46.75723" lon="6.01708">
        <ele>667.77</ele>
        <time>2013-08-14T11:25:14Z</time>
      </trkpt>
      <trkpt lat="46.75724" lon="6.01706">
        <ele>667.77</ele>
        <time>2013-08-14T11:25:41Z</time>
      </trkpt>
      <trkpt lat="46.75724" lon="6.01705">
        <ele>666.81</ele>
        <time>2013-08-14T11:26:01Z</time>
      </trkpt>
      <trkpt lat="46.75723" lon="6.01704">
        <ele>666.33</ele>
        <time>2013-08-14T11:26:25Z</time>
      </trkpt>
      <trkpt lat="46.75722" lon="6.01709">
        <ele>665.85</ele>
        <time>2013-08-14T11:26:47Z</time>
      </trkpt>
      <trkpt lat="46.75716" lon="6.01712">
        <ele>665.85</ele>
        <time>2013-08-14T11:27:02Z</time>
      </trkpt>
      <trkpt lat="46.75709" lon="6.01712">
        <ele>667.77</ele>
        <time>2013-08-14T11:27:19Z</time>
      </trkpt>
      <trkpt lat="46.75701" lon="6.0171">
        <ele>669.7</ele>
        <time>2013-08-14T11:27:33Z</time>
      </trkpt>
      <trkpt lat="46.75691" lon="6.0171">
        <ele>672.58</ele>
        <time>2013-08-14T11:27:50Z</time>
      </trkpt>
      <trkpt lat="46.75678" lon="6.01709">
        <ele>673.06</ele>
        <time>2013-08-14T11:28:07Z</time>
      </trkpt>
      <trkpt lat="46.75652" lon="6.01709">
        <ele>678.35</ele>
        <time>2013-08-14T11:28:28Z</time>
      </trkpt>
      <trkpt lat="46.75642" lon="6.01707">
        <ele>680.27</ele>
        <time>2013-08-14T11:28:42Z</time>
      </trkpt>
      <trkpt lat="46.75636" lon="6.01702">
        <ele>679.79</ele>
        <time>2013-08-14T11:28:55Z</time>
      </trkpt>
      <trkpt lat="46.75626" lon="6.01691">
        <ele>679.79</ele>
        <time>2013-08-14T11:29:11Z</time>
      </trkpt>
      <trkpt lat="46.75607" lon="6.01679">
        <ele>680.75</ele>
        <time>2013-08-14T11:29:26Z</time>
      </trkpt>
      <trkpt lat="46.75601" lon="6.01684">
        <ele>680.27</ele>
        <time>2013-08-14T11:29:32Z</time>
      </trkpt>
      <trkpt lat="46.75596" lon="6.01685">
        <ele>682.19</ele>
        <time>2013-08-14T11:29:37Z</time>
      </trkpt>
      <trkpt lat="46.75581" lon="6.01704">
        <ele>680.27</ele>
        <time>2013-08-14T11:29:55Z</time>
      </trkpt>
      <trkpt lat="46.7557" lon="6.01727">
        <ele>678.83</ele>
        <time>2013-08-14T11:30:15Z</time>
      </trkpt>
      <trkpt lat="46.75555" lon="6.01746">
        <ele>675.94</ele>
        <time>2013-08-14T11:30:33Z</time>
      </trkpt>
      <trkpt lat="46.7554" lon="6.01761">
        <ele>673.06</ele>
        <time>2013-08-14T11:30:48Z</time>
      </trkpt>
      <trkpt lat="46.75521" lon="6.01769">
        <ele>671.62</ele>
        <time>2013-08-14T11:31:03Z</time>
      </trkpt>
      <trkpt lat="46.75503" lon="6.01781">
        <ele>667.29</ele>
        <time>2013-08-14T11:31:19Z</time>
      </trkpt>
      <trkpt lat="46.75499" lon="6.01784">
        <ele>667.77</ele>
        <time>2013-08-14T11:31:23Z</time>
      </trkpt>
      <trkpt lat="46.75484" lon="6.01797">
        <ele>672.58</ele>
        <time>2013-08-14T11:31:37Z</time>
      </trkpt>
      <trkpt lat="46.75469" lon="6.01815">
        <ele>672.58</ele>
        <time>2013-08-14T11:31:54Z</time>
      </trkpt>
      <trkpt lat="46.75462" lon="6.01822">
        <ele>673.06</ele>
        <time>2013-08-14T11:32:01Z</time>
      </trkpt>
      <trkpt lat="46.75449" lon="6.01832">
        <ele>672.58</ele>
        <time>2013-08-14T11:32:14Z</time>
      </trkpt>
      <trkpt lat="46.75444" lon="6.01838">
        <ele>673.54</ele>
        <time>2013-08-14T11:32:30Z</time>
      </trkpt>
      <trkpt lat="46.75447" lon="6.01838">
        <ele>674.5</ele>
        <time>2013-08-14T11:32:54Z</time>
      </trkpt>
      <trkpt lat="46.75442" lon="6.01839">
        <ele>676.91</ele>
        <time>2013-08-14T11:33:05Z</time>
      </trkpt>
      <trkpt lat="46.7543" lon="6.01848">
        <ele>676.91</ele>
        <time>2013-08-14T11:33:19Z</time>
      </trkpt>
      <trkpt lat="46.75421" lon="6.01856">
        <ele>678.83</ele>
        <time>2013-08-14T11:33:30Z</time>
      </trkpt>
      <trkpt lat="46.75407" lon="6.01871">
        <ele>677.87</ele>
        <time>2013-08-14T11:33:44Z</time>
      </trkpt>
      <trkpt lat="46.75393" lon="6.01885">
        <ele>678.83</ele>
        <time>2013-08-14T11:33:54Z</time>
      </trkpt>
      <trkpt lat="46.75384" lon="6.01889">
        <ele>678.83</ele>
        <time>2013-08-14T11:34:00Z</time>
      </trkpt>
      <trkpt lat="46.75369" lon="6.01901">
        <ele>678.83</ele>
        <time>2013-08-14T11:34:15Z</time>
      </trkpt>
      <trkpt lat="46.75347" lon="6.01923">
        <ele>677.39</ele>
        <time>2013-08-14T11:34:39Z</time>
      </trkpt>
      <trkpt lat="46.75325" lon="6.01944">
        <ele>677.87</ele>
        <time>2013-08-14T11:34:55Z</time>
      </trkpt>
      <trkpt lat="46.75316" lon="6.01945">
        <ele>676.91</ele>
        <time>2013-08-14T11:35:08Z</time>
      </trkpt>
      <trkpt lat="46.75301" lon="6.01947">
        <ele>676.91</ele>
        <time>2013-08-14T11:35:20Z</time>
      </trkpt>
      <trkpt lat="46.75299" lon="6.01948">
        <ele>676.91</ele>
        <time>2013-08-14T11:35:21Z</time>
      </trkpt>
      <trkpt lat="46.75285" lon="6.01956">
        <ele>677.87</ele>
        <time>2013-08-14T11:35:33Z</time>
      </trkpt>
      <trkpt lat="46.75273" lon="6.0196">
        <ele>676.91</ele>
        <time>2013-08-14T11:35:49Z</time>
      </trkpt>
      <trkpt lat="46.75256" lon="6.01974">
        <ele>677.87</ele>
        <time>2013-08-14T11:36:05Z</time>
      </trkpt>
      <trkpt lat="46.75254" lon="6.01975">
        <ele>677.87</ele>
        <time>2013-08-14T11:36:07Z</time>
      </trkpt>
      <trkpt lat="46.7525" lon="6.01977">
        <ele>677.87</ele>
        <time>2013-08-14T11:36:10Z</time>
      </trkpt>
      <trkpt lat="46.75235" lon="6.0199">
        <ele>678.83</ele>
        <time>2013-08-14T11:36:25Z</time>
      </trkpt>
      <trkpt lat="46.75214" lon="6.02003">
        <ele>680.27</ele>
        <time>2013-08-14T11:36:42Z</time>
      </trkpt>
      <trkpt lat="46.75199" lon="6.02015">
        <ele>678.83</ele>
        <time>2013-08-14T11:36:57Z</time>
      </trkpt>
      <trkpt lat="46.75189" lon="6.02016">
        <ele>682.67</ele>
        <time>2013-08-14T11:37:10Z</time>
      </trkpt>
      <trkpt lat="46.7519" lon="6.02017">
        <ele>684.12</ele>
        <time>2013-08-14T11:37:34Z</time>
      </trkpt>
      <trkpt lat="46.7519" lon="6.02024">
        <ele>685.56</ele>
        <time>2013-08-14T11:37:49Z</time>
      </trkpt>
      <trkpt lat="46.75186" lon="6.02028">
        <ele>686.04</ele>
        <time>2013-08-14T11:38:02Z</time>
      </trkpt>
      <trkpt lat="46.75177" lon="6.02037">
        <ele>687.96</ele>
        <time>2013-08-14T11:38:16Z</time>
      </trkpt>
      <trkpt lat="46.75163" lon="6.02049">
        <ele>688.92</ele>
        <time>2013-08-14T11:38:32Z</time>
      </trkpt>
      <trkpt lat="46.7515" lon="6.02063">
        <ele>689.4</ele>
        <time>2013-08-14T11:38:47Z</time>
      </trkpt>
      <trkpt lat="46.75138" lon="6.02077">
        <ele>686.52</ele>
        <time>2013-08-14T11:39:08Z</time>
      </trkpt>
      <trkpt lat="46.75132" lon="6.02093">
        <ele>690.84</ele>
        <time>2013-08-14T11:39:20Z</time>
      </trkpt>
      <trkpt lat="46.7513" lon="6.02096">
        <ele>691.33</ele>
        <time>2013-08-14T11:39:23Z</time>
      </trkpt>
      <trkpt lat="46.75127" lon="6.02101">
        <ele>691.33</ele>
        <time>2013-08-14T11:39:27Z</time>
      </trkpt>
      <trkpt lat="46.75116" lon="6.02113">
        <ele>693.25</ele>
        <time>2013-08-14T11:39:42Z</time>
      </trkpt>
      <trkpt lat="46.75116" lon="6.02117">
        <ele>694.21</ele>
        <time>2013-08-14T11:39:57Z</time>
      </trkpt>
      <trkpt lat="46.75112" lon="6.02125">
        <ele>694.21</ele>
        <time>2013-08-14T11:40:08Z</time>
      </trkpt>
      <trkpt lat="46.75108" lon="6.02134">
        <ele>690.84</ele>
        <time>2013-08-14T11:40:25Z</time>
      </trkpt>
      <trkpt lat="46.75086" lon="6.0215">
        <ele>689.4</ele>
        <time>2013-08-14T11:40:38Z</time>
      </trkpt>
      <trkpt lat="46.75066" lon="6.02169">
        <ele>689.88</ele>
        <time>2013-08-14T11:40:54Z</time>
      </trkpt>
      <trkpt lat="46.75051" lon="6.02188">
        <ele>689.4</ele>
        <time>2013-08-14T11:41:13Z</time>
      </trkpt>
      <trkpt lat="46.75041" lon="6.02204">
        <ele>689.88</ele>
        <time>2013-08-14T11:41:25Z</time>
      </trkpt>
      <trkpt lat="46.7503" lon="6.02222">
        <ele>689.4</ele>
        <time>2013-08-14T11:41:48Z</time>
      </trkpt>
      <trkpt lat="46.75031" lon="6.02233">
        <ele>689.4</ele>
        <time>2013-08-14T11:42:04Z</time>
      </trkpt>
      <trkpt lat="46.75018" lon="6.02252">
        <ele>691.33</ele>
        <time>2013-08-14T11:42:17Z</time>
      </trkpt>
      <trkpt lat="46.75016" lon="6.02266">
        <ele>690.36</ele>
        <time>2013-08-14T11:42:34Z</time>
      </trkpt>
      <trkpt lat="46.75008" lon="6.02276">
        <ele>690.36</ele>
        <time>2013-08-14T11:42:48Z</time>
      </trkpt>
      <trkpt lat="46.75016" lon="6.02286">
        <ele>689.88</ele>
        <time>2013-08-14T11:43:09Z</time>
      </trkpt>
      <trkpt lat="46.75011" lon="6.02286">
        <ele>691.81</ele>
        <time>2013-08-14T11:43:21Z</time>
      </trkpt>
      <trkpt lat="46.75004" lon="6.02287">
        <ele>695.17</ele>
        <time>2013-08-14T11:43:35Z</time>
      </trkpt>
      <trkpt lat="46.75001" lon="6.02291">
        <ele>697.09</ele>
        <time>2013-08-14T11:44:00Z</time>
      </trkpt>
      <trkpt lat="46.75002" lon="6.02296">
        <ele>698.05</ele>
        <time>2013-08-14T11:44:12Z</time>
      </trkpt>
      <trkpt lat="46.75002" lon="6.02297">
        <ele>698.53</ele>
        <time>2013-08-14T11:44:28Z</time>
      </trkpt>
      <trkpt lat="46.7501" lon="6.02301">
        <ele>698.53</ele>
        <time>2013-08-14T11:44:45Z</time>
      </trkpt>
      <trkpt lat="46.7501" lon="6.02303">
        <ele>698.53</ele>
        <time>2013-08-14T11:44:55Z</time>
      </trkpt>
      <trkpt lat="46.75007" lon="6.02296">
        <ele>700.94</ele>
        <time>2013-08-14T11:45:11Z</time>
      </trkpt>
      <trkpt lat="46.74986" lon="6.02289">
        <ele>701.9</ele>
        <time>2013-08-14T11:45:29Z</time>
      </trkpt>
      <trkpt lat="46.74987" lon="6.02291">
        <ele>702.86</ele>
        <time>2013-08-14T11:45:47Z</time>
      </trkpt>
      <trkpt lat="46.74986" lon="6.02292">
        <ele>702.38</ele>
        <time>2013-08-14T11:46:06Z</time>
      </trkpt>
      <trkpt lat="46.74984" lon="6.02301">
        <ele>702.38</ele>
        <time>2013-08-14T11:46:18Z</time>
      </trkpt>
      <trkpt lat="46.74985" lon="6.02308">
        <ele>702.38</ele>
        <time>2013-08-14T11:46:31Z</time>
      </trkpt>
      <trkpt lat="46.74989" lon="6.02311">
        <ele>702.38</ele>
        <time>2013-08-14T11:46:50Z</time>
      </trkpt>
      <trkpt lat="46.74985" lon="6.02318">
        <ele>702.38</ele>
        <time>2013-08-14T11:47:08Z</time>
      </trkpt>
      <trkpt lat="46.74985" lon="6.02318">
        <ele>701.9</ele>
        <time>2013-08-14T11:47:23Z</time>
      </trkpt>
      <trkpt lat="46.74988" lon="6.02326">
        <ele>708.63</ele>
        <time>2013-08-14T11:47:37Z</time>
      </trkpt>
      <trkpt lat="46.74985" lon="6.02331">
        <ele>708.63</ele>
        <time>2013-08-14T11:47:47Z</time>
      </trkpt>
      <trkpt lat="46.74969" lon="6.02336">
        <ele>708.63</ele>
        <time>2013-08-14T11:48:03Z</time>
      </trkpt>
      <trkpt lat="46.74966" lon="6.02343">
        <ele>708.63</ele>
        <time>2013-08-14T11:48:17Z</time>
      </trkpt>
      <trkpt lat="46.74982" lon="6.02341">
        <ele>708.63</ele>
        <time>2013-08-14T11:48:42Z</time>
      </trkpt>
      <trkpt lat="46.74991" lon="6.02328">
        <ele>708.63</ele>
        <time>2013-08-14T11:48:56Z</time>
      </trkpt>
      <trkpt lat="46.74999" lon="6.02323">
        <ele>708.63</ele>
        <time>2013-08-14T11:49:14Z</time>
      </trkpt>
      <trkpt lat="46.74998" lon="6.02322">
        <ele>708.63</ele>
        <time>2013-08-14T11:49:21Z</time>
      </trkpt>
      <trkpt lat="46.75107" lon="6.02244">
        <ele>737.47</ele>
        <time>2013-08-14T11:52:42Z</time>
      </trkpt>
      <trkpt lat="46.751" lon="6.0226">
        <ele>750.45</ele>
        <time>2013-08-14T11:53:05Z</time>
      </trkpt>
      <trkpt lat="46.75117" lon="6.02254">
        <ele>750.45</ele>
        <time>2013-08-14T11:53:15Z</time>
      </trkpt>
      <trkpt lat="46.75129" lon="6.02257">
        <ele>746.6</ele>
        <time>2013-08-14T11:53:21Z</time>
      </trkpt>
      <trkpt lat="46.74963" lon="6.02187">
        <ele>757.66</ele>
        <time>2013-08-14T11:53:29Z</time>
      </trkpt>
      <trkpt lat="46.74981" lon="6.0219">
        <ele>744.2</ele>
        <time>2013-08-14T11:53:43Z</time>
      </trkpt>
      <trkpt lat="46.74993" lon="6.02167">
        <ele>729.78</ele>
        <time>2013-08-14T11:54:02Z</time>
      </trkpt>
      <trkpt lat="46.74984" lon="6.02162">
        <ele>731.7</ele>
        <time>2013-08-14T11:54:18Z</time>
      </trkpt>
      <trkpt lat="46.74982" lon="6.02153">
        <ele>734.1</ele>
        <time>2013-08-14T11:54:23Z</time>
      </trkpt>
      <trkpt lat="46.75003" lon="6.02129">
        <ele>728.82</ele>
        <time>2013-08-14T11:54:41Z</time>
      </trkpt>
      <trkpt lat="46.75008" lon="6.02128">
        <ele>728.82</ele>
        <time>2013-08-14T11:54:43Z</time>
      </trkpt>
      <trkpt lat="46.7505" lon="6.02118">
        <ele>724.01</ele>
        <time>2013-08-14T11:54:59Z</time>
      </trkpt>
      <trkpt lat="46.7507" lon="6.02105">
        <ele>719.68</ele>
        <time>2013-08-14T11:55:13Z</time>
      </trkpt>
      <trkpt lat="46.75078" lon="6.021">
        <ele>715.84</ele>
        <time>2013-08-14T11:55:26Z</time>
      </trkpt>
      <trkpt lat="46.75069" lon="6.02105">
        <ele>713.44</ele>
        <time>2013-08-14T11:55:43Z</time>
      </trkpt>
      <trkpt lat="46.75064" lon="6.02123">
        <ele>710.55</ele>
        <time>2013-08-14T11:55:59Z</time>
      </trkpt>
      <trkpt lat="46.75061" lon="6.02131">
        <ele>709.59</ele>
        <time>2013-08-14T11:56:05Z</time>
      </trkpt>
      <trkpt lat="46.75041" lon="6.02144">
        <ele>708.15</ele>
        <time>2013-08-14T11:56:20Z</time>
      </trkpt>
      <trkpt lat="46.75021" lon="6.02151">
        <ele>706.71</ele>
        <time>2013-08-14T11:56:34Z</time>
      </trkpt>
      <trkpt lat="46.75001" lon="6.02162">
        <ele>708.15</ele>
        <time>2013-08-14T11:56:49Z</time>
      </trkpt>
      <trkpt lat="46.74986" lon="6.02167">
        <ele>708.63</ele>
        <time>2013-08-14T11:56:59Z</time>
      </trkpt>
      <trkpt lat="46.74974" lon="6.02188">
        <ele>711.51</ele>
        <time>2013-08-14T11:57:16Z</time>
      </trkpt>
      <trkpt lat="46.74971" lon="6.02199">
        <ele>712.95</ele>
        <time>2013-08-14T11:57:27Z</time>
      </trkpt>
      <trkpt lat="46.74968" lon="6.02212">
        <ele>713.44</ele>
        <time>2013-08-14T11:57:38Z</time>
      </trkpt>
      <trkpt lat="46.74967" lon="6.02215">
        <ele>713.44</ele>
        <time>2013-08-14T11:57:43Z</time>
      </trkpt>
      <trkpt lat="46.74964" lon="6.0222">
        <ele>711.99</ele>
        <time>2013-08-14T11:57:50Z</time>
      </trkpt>
      <trkpt lat="46.74957" lon="6.02228">
        <ele>707.67</ele>
        <time>2013-08-14T11:58:00Z</time>
      </trkpt>
      <trkpt lat="46.74963" lon="6.02242">
        <ele>705.75</ele>
        <time>2013-08-14T11:58:17Z</time>
      </trkpt>
      <trkpt lat="46.74961" lon="6.02246">
        <ele>704.3</ele>
        <time>2013-08-14T11:58:23Z</time>
      </trkpt>
      <trkpt lat="46.7495" lon="6.02259">
        <ele>704.3</ele>
        <time>2013-08-14T11:58:36Z</time>
      </trkpt>
      <trkpt lat="46.74947" lon="6.02268">
        <ele>703.82</ele>
        <time>2013-08-14T11:58:51Z</time>
      </trkpt>
      <trkpt lat="46.74937" lon="6.0228">
        <ele>699.5</ele>
        <time>2013-08-14T11:59:07Z</time>
      </trkpt>
      <trkpt lat="46.74929" lon="6.02294">
        <ele>701.42</ele>
        <time>2013-08-14T11:59:20Z</time>
      </trkpt>
      <trkpt lat="46.74928" lon="6.02295">
        <ele>701.9</ele>
        <time>2013-08-14T11:59:21Z</time>
      </trkpt>
      <trkpt lat="46.74921" lon="6.02299">
        <ele>702.86</ele>
        <time>2013-08-14T11:59:26Z</time>
      </trkpt>
      <trkpt lat="46.74915" lon="6.02301">
        <ele>702.38</ele>
        <time>2013-08-14T11:59:30Z</time>
      </trkpt>
      <trkpt lat="46.74894" lon="6.02316">
        <ele>701.42</ele>
        <time>2013-08-14T11:59:44Z</time>
      </trkpt>
      <trkpt lat="46.74899" lon="6.0234">
        <ele>703.34</ele>
        <time>2013-08-14T11:59:58Z</time>
      </trkpt>
      <trkpt lat="46.74899" lon="6.02341">
        <ele>703.34</ele>
        <time>2013-08-14T11:59:59Z</time>
      </trkpt>
      <trkpt lat="46.74902" lon="6.02352">
        <ele>704.78</ele>
        <time>2013-08-14T12:00:09Z</time>
      </trkpt>
      <trkpt lat="46.74909" lon="6.02358">
        <ele>708.63</ele>
        <time>2013-08-14T12:00:16Z</time>
      </trkpt>
      <trkpt lat="46.7491" lon="6.02365">
        <ele>711.51</ele>
        <time>2013-08-14T12:00:29Z</time>
      </trkpt>
      <trkpt lat="46.74914" lon="6.02366">
        <ele>712.95</ele>
        <time>2013-08-14T12:00:41Z</time>
      </trkpt>
      <trkpt lat="46.7493" lon="6.02369">
        <ele>714.4</ele>
        <time>2013-08-14T12:00:52Z</time>
      </trkpt>
      <trkpt lat="46.74945" lon="6.02361">
        <ele>716.8</ele>
        <time>2013-08-14T12:01:05Z</time>
      </trkpt>
      <trkpt lat="46.74955" lon="6.02359">
        <ele>716.8</ele>
        <time>2013-08-14T12:01:09Z</time>
      </trkpt>
      <trkpt lat="46.74967" lon="6.02358">
        <ele>725.45</ele>
        <time>2013-08-14T12:01:27Z</time>
      </trkpt>
      <trkpt lat="46.74976" lon="6.02354">
        <ele>726.89</ele>
        <time>2013-08-14T12:01:39Z</time>
      </trkpt>
      <trkpt lat="46.74992" lon="6.02348">
        <ele>726.89</ele>
        <time>2013-08-14T12:01:53Z</time>
      </trkpt>
      <trkpt lat="46.75" lon="6.02342">
        <ele>726.89</ele>
        <time>2013-08-14T12:02:06Z</time>
      </trkpt>
      <trkpt lat="46.75006" lon="6.02341">
        <ele>726.89</ele>
        <time>2013-08-14T12:02:22Z</time>
      </trkpt>
      <trkpt lat="46.75008" lon="6.02338">
        <ele>727.37</ele>
        <time>2013-08-14T12:02:40Z</time>
      </trkpt>
      <trkpt lat="46.75011" lon="6.02337">
        <ele>727.37</ele>
        <time>2013-08-14T12:02:59Z</time>
      </trkpt>
      <trkpt lat="46.7501" lon="6.02334">
        <ele>727.37</ele>
        <time>2013-08-14T12:03:16Z</time>
      </trkpt>
      <trkpt lat="46.7501" lon="6.02321">
        <ele>727.37</ele>
        <time>2013-08-14T12:03:29Z</time>
      </trkpt>
      <trkpt lat="46.75016" lon="6.02307">
        <ele>727.37</ele>
        <time>2013-08-14T12:04:23Z</time>
      </trkpt>
      <trkpt lat="46.75019" lon="6.02305">
        <ele>727.37</ele>
        <time>2013-08-14T12:04:42Z</time>
      </trkpt>
      <trkpt lat="46.75022" lon="6.02303">
        <ele>727.37</ele>
        <time>2013-08-14T12:04:56Z</time>
      </trkpt>
      <trkpt lat="46.75026" lon="6.02301">
        <ele>727.37</ele>
        <time>2013-08-14T12:05:12Z</time>
      </trkpt>
      <trkpt lat="46.75028" lon="6.023">
        <ele>726.89</ele>
        <time>2013-08-14T12:05:29Z</time>
      </trkpt>
      <trkpt lat="46.75029" lon="6.02294">
        <ele>726.89</ele>
        <time>2013-08-14T12:05:46Z</time>
      </trkpt>
      <trkpt lat="46.75032" lon="6.0229">
        <ele>726.89</ele>
        <time>2013-08-14T12:06:03Z</time>
      </trkpt>
      <trkpt lat="46.75035" lon="6.02285">
        <ele>726.41</ele>
        <time>2013-08-14T12:06:22Z</time>
      </trkpt>
      <trkpt lat="46.75038" lon="6.02279">
        <ele>725.93</ele>
        <time>2013-08-14T12:06:40Z</time>
      </trkpt>
      <trkpt lat="46.75042" lon="6.02276">
        <ele>725.93</ele>
        <time>2013-08-14T12:06:59Z</time>
      </trkpt>
      <trkpt lat="46.75046" lon="6.02275">
        <ele>725.93</ele>
        <time>2013-08-14T12:07:16Z</time>
      </trkpt>
      <trkpt lat="46.75049" lon="6.02273">
        <ele>725.93</ele>
        <time>2013-08-14T12:07:32Z</time>
      </trkpt>
      <trkpt lat="46.75054" lon="6.02269">
        <ele>725.93</ele>
        <time>2013-08-14T12:07:55Z</time>
      </trkpt>
      <trkpt lat="46.75057" lon="6.02265">
        <ele>725.93</ele>
        <time>2013-08-14T12:08:16Z</time>
      </trkpt>
      <trkpt lat="46.75058" lon="6.02262">
        <ele>725.93</ele>
        <time>2013-08-14T12:08:32Z</time>
      </trkpt>
      <trkpt lat="46.7506" lon="6.02261">
        <ele>725.93</ele>
        <time>2013-08-14T12:08:48Z</time>
      </trkpt>
      <trkpt lat="46.75063" lon="6.02258">
        <ele>725.93</ele>
        <time>2013-08-14T12:09:10Z</time>
      </trkpt>
      <trkpt lat="46.75065" lon="6.02255">
        <ele>725.93</ele>
        <time>2013-08-14T12:09:29Z</time>
      </trkpt>
      <trkpt lat="46.75067" lon="6.02253">
        <ele>725.93</ele>
        <time>2013-08-14T12:09:47Z</time>
      </trkpt>
      <trkpt lat="46.75069" lon="6.0225">
        <ele>725.93</ele>
        <time>2013-08-14T12:10:05Z</time>
      </trkpt>
      <trkpt lat="46.75072" lon="6.02247">
        <ele>725.93</ele>
        <time>2013-08-14T12:10:25Z</time>
      </trkpt>
      <trkpt lat="46.75074" lon="6.02244">
        <ele>725.93</ele>
        <time>2013-08-14T12:10:48Z</time>
      </trkpt>
      <trkpt lat="46.75075" lon="6.02242">
        <ele>725.93</ele>
        <time>2013-08-14T12:11:10Z</time>
      </trkpt>
      <trkpt lat="46.75078" lon="6.02239">
        <ele>725.93</ele>
        <time>2013-08-14T12:11:27Z</time>
      </trkpt>
      <trkpt lat="46.75083" lon="6.02235">
        <ele>725.93</ele>
        <time>2013-08-14T12:11:46Z</time>
      </trkpt>
      <trkpt lat="46.75086" lon="6.02233">
        <ele>725.93</ele>
        <time>2013-08-14T12:12:04Z</time>
      </trkpt>
      <trkpt lat="46.75091" lon="6.02228">
        <ele>726.41</ele>
        <time>2013-08-14T12:12:33Z</time>
      </trkpt>
      <trkpt lat="46.75093" lon="6.02224">
        <ele>726.41</ele>
        <time>2013-08-14T12:13:00Z</time>
      </trkpt>
      <trkpt lat="46.75097" lon="6.02222">
        <ele>726.41</ele>
        <time>2013-08-14T12:13:21Z</time>
      </trkpt>
      <trkpt lat="46.75101" lon="6.02218">
        <ele>726.89</ele>
        <time>2013-08-14T12:13:40Z</time>
      </trkpt>
      <trkpt lat="46.75104" lon="6.02216">
        <ele>727.37</ele>
        <time>2013-08-14T12:14:02Z</time>
      </trkpt>
      <trkpt lat="46.75106" lon="6.02213">
        <ele>727.37</ele>
        <time>2013-08-14T12:14:21Z</time>
      </trkpt>
      <trkpt lat="46.75109" lon="6.0221">
        <ele>727.37</ele>
        <time>2013-08-14T12:14:44Z</time>
      </trkpt>
      <trkpt lat="46.75113" lon="6.02207">
        <ele>727.37</ele>
        <time>2013-08-14T12:15:04Z</time>
      </trkpt>
      <trkpt lat="46.75116" lon="6.02205">
        <ele>727.37</ele>
        <time>2013-08-14T12:15:22Z</time>
      </trkpt>
      <trkpt lat="46.75119" lon="6.02204">
        <ele>727.37</ele>
        <time>2013-08-14T12:15:42Z</time>
      </trkpt>
      <trkpt lat="46.75122" lon="6.02202">
        <ele>727.37</ele>
        <time>2013-08-14T12:16:00Z</time>
      </trkpt>
      <trkpt lat="46.75124" lon="6.022">
        <ele>727.37</ele>
        <time>2013-08-14T12:16:20Z</time>
      </trkpt>
      <trkpt lat="46.75127" lon="6.02197">
        <ele>727.37</ele>
        <time>2013-08-14T12:16:34Z</time>
      </trkpt>
      <trkpt lat="46.75129" lon="6.02193">
        <ele>727.86</ele>
        <time>2013-08-14T12:16:48Z</time>
      </trkpt>
      <trkpt lat="46.75134" lon="6.0219">
        <ele>727.86</ele>
        <time>2013-08-14T12:17:06Z</time>
      </trkpt>
      <trkpt lat="46.75139" lon="6.02186">
        <ele>727.86</ele>
        <time>2013-08-14T12:17:26Z</time>
      </trkpt>
      <trkpt lat="46.75144" lon="6.02181">
        <ele>727.86</ele>
        <time>2013-08-14T12:17:42Z</time>
      </trkpt>
      <trkpt lat="46.75148" lon="6.02174">
        <ele>727.86</ele>
        <time>2013-08-14T12:17:58Z</time>
      </trkpt>
      <trkpt lat="46.75167" lon="6.02161">
        <ele>726.89</ele>
        <time>2013-08-14T12:18:12Z</time>
      </trkpt>
      <trkpt lat="46.75191" lon="6.02154">
        <ele>725.93</ele>
        <time>2013-08-14T12:18:26Z</time>
      </trkpt>
      <trkpt lat="46.75216" lon="6.02149">
        <ele>725.45</ele>
        <time>2013-08-14T12:18:48Z</time>
      </trkpt>
      <trkpt lat="46.75239" lon="6.0214">
        <ele>725.45</ele>
        <time>2013-08-14T12:19:06Z</time>
      </trkpt>
      <trkpt lat="46.75284" lon="6.02141">
        <ele>727.37</ele>
        <time>2013-08-14T12:19:26Z</time>
      </trkpt>
      <trkpt lat="46.75294" lon="6.02139">
        <ele>723.05</ele>
        <time>2013-08-14T12:19:45Z</time>
      </trkpt>
      <trkpt lat="46.753" lon="6.02139">
        <ele>720.16</ele>
        <time>2013-08-14T12:20:02Z</time>
      </trkpt>
      <trkpt lat="46.75308" lon="6.02142">
        <ele>716.8</ele>
        <time>2013-08-14T12:20:16Z</time>
      </trkpt>
      <trkpt lat="46.75309" lon="6.02149">
        <ele>713.44</ele>
        <time>2013-08-14T12:20:30Z</time>
      </trkpt>
      <trkpt lat="46.75312" lon="6.02156">
        <ele>712.95</ele>
        <time>2013-08-14T12:20:48Z</time>
      </trkpt>
      <trkpt lat="46.75316" lon="6.02159">
        <ele>713.92</ele>
        <time>2013-08-14T12:21:04Z</time>
      </trkpt>
      <trkpt lat="46.75317" lon="6.02157">
        <ele>714.4</ele>
        <time>2013-08-14T12:21:21Z</time>
      </trkpt>
      <trkpt lat="46.75316" lon="6.02156">
        <ele>717.28</ele>
        <time>2013-08-14T12:21:40Z</time>
      </trkpt>
      <trkpt lat="46.75318" lon="6.02154">
        <ele>720.65</ele>
        <time>2013-08-14T12:22:01Z</time>
      </trkpt>
      <trkpt lat="46.75317" lon="6.0216">
        <ele>722.09</ele>
        <time>2013-08-14T12:22:20Z</time>
      </trkpt>
      <trkpt lat="46.75315" lon="6.02172">
        <ele>720.65</ele>
        <time>2013-08-14T12:22:34Z</time>
      </trkpt>
      <trkpt lat="46.75319" lon="6.0218">
        <ele>718.72</ele>
        <time>2013-08-14T12:22:50Z</time>
      </trkpt>
      <trkpt lat="46.75319" lon="6.02188">
        <ele>720.16</ele>
        <time>2013-08-14T12:23:07Z</time>
      </trkpt>
      <trkpt lat="46.7532" lon="6.02196">
        <ele>722.09</ele>
        <time>2013-08-14T12:23:24Z</time>
      </trkpt>
      <trkpt lat="46.75321" lon="6.02199">
        <ele>722.09</ele>
        <time>2013-08-14T12:23:39Z</time>
      </trkpt>
      <trkpt lat="46.75322" lon="6.02201">
        <ele>721.61</ele>
        <time>2013-08-14T12:23:57Z</time>
      </trkpt>
      <trkpt lat="46.75324" lon="6.02203">
        <ele>721.61</ele>
        <time>2013-08-14T12:24:18Z</time>
      </trkpt>
      <trkpt lat="46.75323" lon="6.02203">
        <ele>721.61</ele>
        <time>2013-08-14T12:24:38Z</time>
      </trkpt>
      <trkpt lat="46.75325" lon="6.02202">
        <ele>722.09</ele>
        <time>2013-08-14T12:24:49Z</time>
      </trkpt>
      <trkpt lat="46.75327" lon="6.02203">
        <ele>722.09</ele>
        <time>2013-08-14T12:25:01Z</time>
      </trkpt>
      <trkpt lat="46.75326" lon="6.022">
        <ele>723.05</ele>
        <time>2013-08-14T12:25:17Z</time>
      </trkpt>
      <trkpt lat="46.75326" lon="6.02203">
        <ele>727.37</ele>
        <time>2013-08-14T12:25:37Z</time>
      </trkpt>
      <trkpt lat="46.75325" lon="6.02205">
        <ele>729.78</ele>
        <time>2013-08-14T12:25:54Z</time>
      </trkpt>
      <trkpt lat="46.75325" lon="6.02204">
        <ele>733.14</ele>
        <time>2013-08-14T12:26:20Z</time>
      </trkpt>
      <trkpt lat="46.75326" lon="6.02206">
        <ele>733.14</ele>
        <time>2013-08-14T12:26:45Z</time>
      </trkpt>
      <trkpt lat="46.75324" lon="6.02204">
        <ele>733.14</ele>
        <time>2013-08-14T12:27:07Z</time>
      </trkpt>
      <trkpt lat="46.75325" lon="6.02204">
        <ele>732.66</ele>
        <time>2013-08-14T12:27:23Z</time>
      </trkpt>
      <trkpt lat="46.75324" lon="6.02204">
        <ele>733.62</ele>
        <time>2013-08-14T12:27:40Z</time>
      </trkpt>
      <trkpt lat="46.75323" lon="6.02202">
        <ele>733.62</ele>
        <time>2013-08-14T12:28:00Z</time>
      </trkpt>
      <trkpt lat="46.75323" lon="6.02203">
        <ele>734.58</ele>
        <time>2013-08-14T12:28:18Z</time>
      </trkpt>
      <trkpt lat="46.75323" lon="6.02203">
        <ele>734.58</ele>
        <time>2013-08-14T12:28:40Z</time>
      </trkpt>
      <trkpt lat="46.75323" lon="6.02202">
        <ele>735.07</ele>
        <time>2013-08-14T12:29:12Z</time>
      </trkpt>
      <trkpt lat="46.75325" lon="6.02203">
        <ele>735.55</ele>
        <time>2013-08-14T12:29:45Z</time>
      </trkpt>
      <trkpt lat="46.75324" lon="6.02203">
        <ele>735.07</ele>
        <time>2013-08-14T12:30:10Z</time>
      </trkpt>
      <trkpt lat="46.75323" lon="6.02203">
        <ele>736.03</ele>
        <time>2013-08-14T12:30:42Z</time>
      </trkpt>
      <trkpt lat="46.75323" lon="6.02204">
        <ele>736.99</ele>
        <time>2013-08-14T12:31:12Z</time>
      </trkpt>
      <trkpt lat="46.75323" lon="6.02204">
        <ele>737.47</ele>
        <time>2013-08-14T12:31:35Z</time>
      </trkpt>
      <trkpt lat="46.75323" lon="6.02205">
        <ele>737.47</ele>
        <time>2013-08-14T12:31:54Z</time>
      </trkpt>
      <trkpt lat="46.75322" lon="6.02205">
        <ele>737.95</ele>
        <time>2013-08-14T12:32:14Z</time>
      </trkpt>
      <trkpt lat="46.75323" lon="6.02205">
        <ele>739.39</ele>
        <time>2013-08-14T12:32:45Z</time>
      </trkpt>
      <trkpt lat="46.75323" lon="6.02206">
        <ele>741.31</ele>
        <time>2013-08-14T12:33:11Z</time>
      </trkpt>
      <trkpt lat="46.75321" lon="6.02204">
        <ele>740.35</ele>
        <time>2013-08-14T12:33:44Z</time>
      </trkpt>
      <trkpt lat="46.75321" lon="6.02204">
        <ele>739.39</ele>
        <time>2013-08-14T12:34:19Z</time>
      </trkpt>
      <trkpt lat="46.75321" lon="6.02204">
        <ele>739.87</ele>
        <time>2013-08-14T12:34:39Z</time>
      </trkpt>
      <trkpt lat="46.75321" lon="6.02202">
        <ele>739.87</ele>
        <time>2013-08-14T12:35:00Z</time>
      </trkpt>
      <trkpt lat="46.75321" lon="6.02202">
        <ele>739.87</ele>
        <time>2013-08-14T12:35:24Z</time>
      </trkpt>
      <trkpt lat="46.75321" lon="6.02202">
        <ele>739.87</ele>
        <time>2013-08-14T12:35:46Z</time>
      </trkpt>
      <trkpt lat="46.75321" lon="6.02203">
        <ele>739.87</ele>
        <time>2013-08-14T12:36:04Z</time>
      </trkpt>
      <trkpt lat="46.75321" lon="6.02203">
        <ele>739.39</ele>
        <time>2013-08-14T12:36:28Z</time>
      </trkpt>
      <trkpt lat="46.7532" lon="6.02204">
        <ele>738.43</ele>
        <time>2013-08-14T12:36:54Z</time>
      </trkpt>
      <trkpt lat="46.75319" lon="6.02204">
        <ele>737.95</ele>
        <time>2013-08-14T12:37:15Z</time>
      </trkpt>
      <trkpt lat="46.7532" lon="6.02204">
        <ele>737.95</ele>
        <time>2013-08-14T12:37:43Z</time>
      </trkpt>
      <trkpt lat="46.75318" lon="6.02208">
        <ele>736.51</ele>
        <time>2013-08-14T12:37:54Z</time>
      </trkpt>
      <trkpt lat="46.75319" lon="6.02212">
        <ele>736.51</ele>
        <time>2013-08-14T12:38:10Z</time>
      </trkpt>
      <trkpt lat="46.75324" lon="6.02225">
        <ele>735.07</ele>
        <time>2013-08-14T12:38:25Z</time>
      </trkpt>
      <trkpt lat="46.75324" lon="6.02228">
        <ele>736.51</ele>
        <time>2013-08-14T12:38:44Z</time>
      </trkpt>
      <trkpt lat="46.75326" lon="6.02227">
        <ele>736.99</ele>
        <time>2013-08-14T12:39:00Z</time>
      </trkpt>
      <trkpt lat="46.75332" lon="6.0223">
        <ele>736.99</ele>
        <time>2013-08-14T12:39:06Z</time>
      </trkpt>
      <trkpt lat="46.75356" lon="6.02246">
        <ele>736.03</ele>
        <time>2013-08-14T12:39:29Z</time>
      </trkpt>
      <trkpt lat="46.75373" lon="6.02257">
        <ele>738.91</ele>
        <time>2013-08-14T12:39:42Z</time>
      </trkpt>
      <trkpt lat="46.75389" lon="6.02247">
        <ele>739.39</ele>
        <time>2013-08-14T12:40:01Z</time>
      </trkpt>
      <trkpt lat="46.75408" lon="6.02232">
        <ele>739.39</ele>
        <time>2013-08-14T12:40:20Z</time>
      </trkpt>
      <trkpt lat="46.75431" lon="6.02224">
        <ele>736.03</ele>
        <time>2013-08-14T12:40:39Z</time>
      </trkpt>
      <trkpt lat="46.75443" lon="6.02231">
        <ele>737.95</ele>
        <time>2013-08-14T12:40:53Z</time>
      </trkpt>
      <trkpt lat="46.75444" lon="6.02231">
        <ele>737.47</ele>
        <time>2013-08-14T12:41:13Z</time>
      </trkpt>
      <trkpt lat="46.75446" lon="6.02232">
        <ele>736.99</ele>
        <time>2013-08-14T12:41:22Z</time>
      </trkpt>
      <trkpt lat="46.75461" lon="6.02237">
        <ele>736.99</ele>
        <time>2013-08-14T12:41:37Z</time>
      </trkpt>
      <trkpt lat="46.75479" lon="6.02246">
        <ele>737.47</ele>
        <time>2013-08-14T12:41:52Z</time>
      </trkpt>
      <trkpt lat="46.755" lon="6.02245">
        <ele>736.99</ele>
        <time>2013-08-14T12:42:07Z</time>
      </trkpt>
      <trkpt lat="46.7551" lon="6.02241">
        <ele>732.66</ele>
        <time>2013-08-14T12:42:21Z</time>
      </trkpt>
      <trkpt lat="46.75516" lon="6.02255">
        <ele>724.01</ele>
        <time>2013-08-14T12:42:41Z</time>
      </trkpt>
      <trkpt lat="46.75523" lon="6.02252">
        <ele>723.05</ele>
        <time>2013-08-14T12:43:01Z</time>
      </trkpt>
      <trkpt lat="46.75539" lon="6.02238">
        <ele>725.45</ele>
        <time>2013-08-14T12:43:12Z</time>
      </trkpt>
      <trkpt lat="46.75557" lon="6.02233">
        <ele>726.41</ele>
        <time>2013-08-14T12:43:27Z</time>
      </trkpt>
      <trkpt lat="46.75567" lon="6.02233">
        <ele>727.37</ele>
        <time>2013-08-14T12:43:41Z</time>
      </trkpt>
      <trkpt lat="46.75591" lon="6.02234">
        <ele>726.41</ele>
        <time>2013-08-14T12:43:57Z</time>
      </trkpt>
      <trkpt lat="46.75616" lon="6.02228">
        <ele>726.89</ele>
        <time>2013-08-14T12:44:15Z</time>
      </trkpt>
      <trkpt lat="46.75631" lon="6.02221">
        <ele>727.86</ele>
        <time>2013-08-14T12:44:32Z</time>
      </trkpt>
      <trkpt lat="46.75647" lon="6.02209">
        <ele>726.41</ele>
        <time>2013-08-14T12:44:46Z</time>
      </trkpt>
      <trkpt lat="46.7567" lon="6.02185">
        <ele>723.05</ele>
        <time>2013-08-14T12:45:02Z</time>
      </trkpt>
      <trkpt lat="46.75673" lon="6.02183">
        <ele>723.05</ele>
        <time>2013-08-14T12:45:04Z</time>
      </trkpt>
      <trkpt lat="46.75692" lon="6.02186">
        <ele>726.89</ele>
        <time>2013-08-14T12:45:16Z</time>
      </trkpt>
      <trkpt lat="46.75709" lon="6.02209">
        <ele>730.74</ele>
        <time>2013-08-14T12:45:34Z</time>
      </trkpt>
      <trkpt lat="46.75711" lon="6.02211">
        <ele>731.22</ele>
        <time>2013-08-14T12:45:36Z</time>
      </trkpt>
      <trkpt lat="46.75725" lon="6.02234">
        <ele>733.14</ele>
        <time>2013-08-14T12:45:53Z</time>
      </trkpt>
      <trkpt lat="46.75737" lon="6.02254">
        <ele>732.66</ele>
        <time>2013-08-14T12:46:09Z</time>
      </trkpt>
      <trkpt lat="46.75752" lon="6.02283">
        <ele>732.18</ele>
        <time>2013-08-14T12:46:28Z</time>
      </trkpt>
      <trkpt lat="46.75769" lon="6.02298">
        <ele>728.82</ele>
        <time>2013-08-14T12:46:46Z</time>
      </trkpt>
      <trkpt lat="46.75788" lon="6.02302">
        <ele>729.3</ele>
        <time>2013-08-14T12:47:02Z</time>
      </trkpt>
      <trkpt lat="46.75801" lon="6.02293">
        <ele>727.37</ele>
        <time>2013-08-14T12:47:13Z</time>
      </trkpt>
      <trkpt lat="46.75806" lon="6.02286">
        <ele>726.89</ele>
        <time>2013-08-14T12:47:19Z</time>
      </trkpt>
      <trkpt lat="46.75808" lon="6.02281">
        <ele>726.41</ele>
        <time>2013-08-14T12:47:23Z</time>
      </trkpt>
      <trkpt lat="46.7581" lon="6.02273">
        <ele>726.89</ele>
        <time>2013-08-14T12:47:29Z</time>
      </trkpt>
      <trkpt lat="46.75815" lon="6.02266">
        <ele>725.93</ele>
        <time>2013-08-14T12:47:35Z</time>
      </trkpt>
      <trkpt lat="46.75821" lon="6.02237">
        <ele>721.13</ele>
        <time>2013-08-14T12:47:52Z</time>
      </trkpt>
      <trkpt lat="46.75824" lon="6.02208">
        <ele>716.32</ele>
        <time>2013-08-14T12:48:08Z</time>
      </trkpt>
      <trkpt lat="46.75823" lon="6.022">
        <ele>716.32</ele>
        <time>2013-08-14T12:48:12Z</time>
      </trkpt>
      <trkpt lat="46.75827" lon="6.02178">
        <ele>715.84</ele>
        <time>2013-08-14T12:48:24Z</time>
      </trkpt>
      <trkpt lat="46.7583" lon="6.0217">
        <ele>716.32</ele>
        <time>2013-08-14T12:48:29Z</time>
      </trkpt>
      <trkpt lat="46.75833" lon="6.0215">
        <ele>717.76</ele>
        <time>2013-08-14T12:48:41Z</time>
      </trkpt>
      <trkpt lat="46.75836" lon="6.02126">
        <ele>718.72</ele>
        <time>2013-08-14T12:48:54Z</time>
      </trkpt>
      <trkpt lat="46.75836" lon="6.02108">
        <ele>718.24</ele>
        <time>2013-08-14T12:49:05Z</time>
      </trkpt>
      <trkpt lat="46.75841" lon="6.02095">
        <ele>717.76</ele>
        <time>2013-08-14T12:49:16Z</time>
      </trkpt>
      <trkpt lat="46.75855" lon="6.02086">
        <ele>718.72</ele>
        <time>2013-08-14T12:49:28Z</time>
      </trkpt>
      <trkpt lat="46.75872" lon="6.02084">
        <ele>719.2</ele>
        <time>2013-08-14T12:49:42Z</time>
      </trkpt>
      <trkpt lat="46.75879" lon="6.0208">
        <ele>719.2</ele>
        <time>2013-08-14T12:49:50Z</time>
      </trkpt>
      <trkpt lat="46.75884" lon="6.02075">
        <ele>719.2</ele>
        <time>2013-08-14T12:49:53Z</time>
      </trkpt>
      <trkpt lat="46.75894" lon="6.02063">
        <ele>719.2</ele>
        <time>2013-08-14T12:50:08Z</time>
      </trkpt>
      <trkpt lat="46.75897" lon="6.02031">
        <ele>721.13</ele>
        <time>2013-08-14T12:50:27Z</time>
      </trkpt>
      <trkpt lat="46.75895" lon="6.02009">
        <ele>722.57</ele>
        <time>2013-08-14T12:50:42Z</time>
      </trkpt>
      <trkpt lat="46.75903" lon="6.01992">
        <ele>722.57</ele>
        <time>2013-08-14T12:50:57Z</time>
      </trkpt>
      <trkpt lat="46.75904" lon="6.01991">
        <ele>723.05</ele>
        <time>2013-08-14T12:50:59Z</time>
      </trkpt>
      <trkpt lat="46.75909" lon="6.0199">
        <ele>724.01</ele>
        <time>2013-08-14T12:51:02Z</time>
      </trkpt>
      <trkpt lat="46.75917" lon="6.01992">
        <ele>725.45</ele>
        <time>2013-08-14T12:51:16Z</time>
      </trkpt>
      <trkpt lat="46.75928" lon="6.01997">
        <ele>725.45</ele>
        <time>2013-08-14T12:51:21Z</time>
      </trkpt>
      <trkpt lat="46.75941" lon="6.01998">
        <ele>728.34</ele>
        <time>2013-08-14T12:51:36Z</time>
      </trkpt>
      <trkpt lat="46.75945" lon="6.01998">
        <ele>728.82</ele>
        <time>2013-08-14T12:51:50Z</time>
      </trkpt>
      <trkpt lat="46.75957" lon="6.01997">
        <ele>727.86</ele>
        <time>2013-08-14T12:52:05Z</time>
      </trkpt>
      <trkpt lat="46.75966" lon="6.01997">
        <ele>727.37</ele>
        <time>2013-08-14T12:52:20Z</time>
      </trkpt>
      <trkpt lat="46.75977" lon="6.02011">
        <ele>726.41</ele>
        <time>2013-08-14T12:52:36Z</time>
      </trkpt>
      <trkpt lat="46.76" lon="6.02002">
        <ele>727.37</ele>
        <time>2013-08-14T12:52:54Z</time>
      </trkpt>
      <trkpt lat="46.75994" lon="6.01994">
        <ele>725.93</ele>
        <time>2013-08-14T12:53:09Z</time>
      </trkpt>
      <trkpt lat="46.75994" lon="6.01988">
        <ele>724.97</ele>
        <time>2013-08-14T12:53:25Z</time>
      </trkpt>
      <trkpt lat="46.75993" lon="6.01988">
        <ele>724.97</ele>
        <time>2013-08-14T12:53:52Z</time>
      </trkpt>
      <trkpt lat="46.75993" lon="6.01992">
        <ele>724.01</ele>
        <time>2013-08-14T12:54:13Z</time>
      </trkpt>
      <trkpt lat="46.75991" lon="6.0199">
        <ele>723.53</ele>
        <time>2013-08-14T12:54:27Z</time>
      </trkpt>
      <trkpt lat="46.75992" lon="6.01988">
        <ele>723.05</ele>
        <time>2013-08-14T12:54:47Z</time>
      </trkpt>
      <trkpt lat="46.75992" lon="6.01988">
        <ele>722.57</ele>
        <time>2013-08-14T12:55:19Z</time>
      </trkpt>
      <trkpt lat="46.75995" lon="6.01991">
        <ele>722.09</ele>
        <time>2013-08-14T12:55:36Z</time>
      </trkpt>
      <trkpt lat="46.75991" lon="6.01989">
        <ele>722.09</ele>
        <time>2013-08-14T12:55:57Z</time>
      </trkpt>
      <trkpt lat="46.75986" lon="6.01981">
        <ele>721.61</ele>
        <time>2013-08-14T12:56:14Z</time>
      </trkpt>
      <trkpt lat="46.7599" lon="6.01993">
        <ele>723.53</ele>
        <time>2013-08-14T12:56:31Z</time>
      </trkpt>
      <trkpt lat="46.7599" lon="6.01993">
        <ele>723.53</ele>
        <time>2013-08-14T12:56:49Z</time>
      </trkpt>
      <trkpt lat="46.75991" lon="6.01996">
        <ele>723.05</ele>
        <time>2013-08-14T12:57:05Z</time>
      </trkpt>
      <trkpt lat="46.75994" lon="6.01998">
        <ele>724.01</ele>
        <time>2013-08-14T12:57:18Z</time>
      </trkpt>
      <trkpt lat="46.75996" lon="6.02005">
        <ele>723.53</ele>
        <time>2013-08-14T12:57:36Z</time>
      </trkpt>
      <trkpt lat="46.76004" lon="6.02029">
        <ele>723.05</ele>
        <time>2013-08-14T12:57:53Z</time>
      </trkpt>
      <trkpt lat="46.76001" lon="6.02035">
        <ele>725.45</ele>
        <time>2013-08-14T12:58:01Z</time>
      </trkpt>
      <trkpt lat="46.75985" lon="6.02013">
        <ele>727.37</ele>
        <time>2013-08-14T12:58:18Z</time>
      </trkpt>
      <trkpt lat="46.75979" lon="6.02005">
        <ele>727.37</ele>
        <time>2013-08-14T12:58:25Z</time>
      </trkpt>
      <trkpt lat="46.75973" lon="6.01998">
        <ele>728.34</ele>
        <time>2013-08-14T12:58:31Z</time>
      </trkpt>
      <trkpt lat="46.75966" lon="6.01998">
        <ele>728.82</ele>
        <time>2013-08-14T12:58:37Z</time>
      </trkpt>
      <trkpt lat="46.75967" lon="6.02007">
        <ele>727.37</ele>
        <time>2013-08-14T12:58:51Z</time>
      </trkpt>
      <trkpt lat="46.75979" lon="6.02014">
        <ele>725.93</ele>
        <time>2013-08-14T12:59:01Z</time>
      </trkpt>
      <trkpt lat="46.75991" lon="6.02029">
        <ele>729.3</ele>
        <time>2013-08-14T12:59:14Z</time>
      </trkpt>
      <trkpt lat="46.75999" lon="6.02048">
        <ele>730.74</ele>
        <time>2013-08-14T12:59:30Z</time>
      </trkpt>
      <trkpt lat="46.76001" lon="6.02071">
        <ele>727.37</ele>
        <time>2013-08-14T12:59:45Z</time>
      </trkpt>
      <trkpt lat="46.76006" lon="6.02097">
        <ele>727.86</ele>
        <time>2013-08-14T13:00:00Z</time>
      </trkpt>
      <trkpt lat="46.76006" lon="6.02099">
        <ele>728.34</ele>
        <time>2013-08-14T13:00:01Z</time>
      </trkpt>
      <trkpt lat="46.76009" lon="6.02116">
        <ele>728.34</ele>
        <time>2013-08-14T13:00:17Z</time>
      </trkpt>
      <trkpt lat="46.76009" lon="6.02119">
        <ele>728.34</ele>
        <time>2013-08-14T13:00:21Z</time>
      </trkpt>
      <trkpt lat="46.76011" lon="6.02162">
        <ele>725.93</ele>
        <time>2013-08-14T13:00:36Z</time>
      </trkpt>
      <trkpt lat="46.76011" lon="6.02165">
        <ele>725.93</ele>
        <time>2013-08-14T13:00:38Z</time>
      </trkpt>
      <trkpt lat="46.76019" lon="6.02193">
        <ele>725.93</ele>
        <time>2013-08-14T13:00:55Z</time>
      </trkpt>
      <trkpt lat="46.76022" lon="6.02207">
        <ele>727.86</ele>
        <time>2013-08-14T13:01:10Z</time>
      </trkpt>
      <trkpt lat="46.76029" lon="6.0222">
        <ele>728.34</ele>
        <time>2013-08-14T13:01:20Z</time>
      </trkpt>
      <trkpt lat="46.76042" lon="6.0224">
        <ele>727.37</ele>
        <time>2013-08-14T13:01:36Z</time>
      </trkpt>
      <trkpt lat="46.76051" lon="6.02264">
        <ele>725.93</ele>
        <time>2013-08-14T13:01:52Z</time>
      </trkpt>
      <trkpt lat="46.76052" lon="6.02266">
        <ele>725.45</ele>
        <time>2013-08-14T13:01:54Z</time>
      </trkpt>
      <trkpt lat="46.76069" lon="6.02285">
        <ele>725.93</ele>
        <time>2013-08-14T13:02:11Z</time>
      </trkpt>
      <trkpt lat="46.76077" lon="6.02291">
        <ele>728.34</ele>
        <time>2013-08-14T13:02:18Z</time>
      </trkpt>
      <trkpt lat="46.76086" lon="6.02299">
        <ele>730.74</ele>
        <time>2013-08-14T13:02:27Z</time>
      </trkpt>
      <trkpt lat="46.76093" lon="6.02304">
        <ele>731.7</ele>
        <time>2013-08-14T13:02:34Z</time>
      </trkpt>
      <trkpt lat="46.76106" lon="6.02322">
        <ele>729.78</ele>
        <time>2013-08-14T13:02:50Z</time>
      </trkpt>
      <trkpt lat="46.76111" lon="6.0233">
        <ele>729.78</ele>
        <time>2013-08-14T13:03:06Z</time>
      </trkpt>
      <trkpt lat="46.76116" lon="6.02336">
        <ele>727.86</ele>
        <time>2013-08-14T13:03:34Z</time>
      </trkpt>
      <trkpt lat="46.76127" lon="6.02353">
        <ele>724.97</ele>
        <time>2013-08-14T13:03:50Z</time>
      </trkpt>
      <trkpt lat="46.76141" lon="6.02382">
        <ele>722.57</ele>
        <time>2013-08-14T13:04:11Z</time>
      </trkpt>
      <trkpt lat="46.76143" lon="6.02385">
        <ele>721.61</ele>
        <time>2013-08-14T13:04:24Z</time>
      </trkpt>
      <trkpt lat="46.76144" lon="6.02386">
        <ele>722.09</ele>
        <time>2013-08-14T13:04:47Z</time>
      </trkpt>
      <trkpt lat="46.76152" lon="6.02392">
        <ele>722.09</ele>
        <time>2013-08-14T13:05:07Z</time>
      </trkpt>
      <trkpt lat="46.76162" lon="6.02411">
        <ele>721.61</ele>
        <time>2013-08-14T13:05:23Z</time>
      </trkpt>
      <trkpt lat="46.76166" lon="6.02423">
        <ele>720.65</ele>
        <time>2013-08-14T13:05:41Z</time>
      </trkpt>
      <trkpt lat="46.76166" lon="6.02424">
        <ele>720.65</ele>
        <time>2013-08-14T13:05:58Z</time>
      </trkpt>
      <trkpt lat="46.76167" lon="6.02423">
        <ele>720.65</ele>
        <time>2013-08-14T13:06:17Z</time>
      </trkpt>
      <trkpt lat="46.76166" lon="6.02422">
        <ele>720.65</ele>
        <time>2013-08-14T13:06:31Z</time>
      </trkpt>
      <trkpt lat="46.76166" lon="6.02422">
        <ele>720.65</ele>
        <time>2013-08-14T13:06:54Z</time>
      </trkpt>
      <trkpt lat="46.76166" lon="6.02421">
        <ele>720.16</ele>
        <time>2013-08-14T13:07:11Z</time>
      </trkpt>
      <trkpt lat="46.76166" lon="6.02422">
        <ele>720.65</ele>
        <time>2013-08-14T13:07:33Z</time>
      </trkpt>
      <trkpt lat="46.76167" lon="6.02423">
        <ele>721.13</ele>
        <time>2013-08-14T13:08:02Z</time>
      </trkpt>
      <trkpt lat="46.76167" lon="6.02424">
        <ele>721.61</ele>
        <time>2013-08-14T13:08:27Z</time>
      </trkpt>
      <trkpt lat="46.76167" lon="6.02423">
        <ele>721.13</ele>
        <time>2013-08-14T13:08:52Z</time>
      </trkpt>
      <trkpt lat="46.76167" lon="6.02423">
        <ele>720.65</ele>
        <time>2013-08-14T13:09:16Z</time>
      </trkpt>
    </trkseg>
  </trk>
</gpx>